<?xml version="1.0" encoding="UTF-8" standalone="no" ?><gpx xmlns="http://www.topografix.com/GPX/1/1" xmlns:gpxx="http://www.garmin.com/xmlschemas/GpxExtensions/v3" xmlns:wptx1="http://www.garmin.com/xmlschemas/WaypointExtension/v1" xmlns:gpxtpx="http://www.garmin.com/xmlschemas/TrackPointExtension/v1" creator="Dakota 20" version="1.1" xmlns:xsi="http://www.w3.org/2001/XMLSchema-instance" xsi:schemaLocation="http://www.topografix.com/GPX/1/1 http://www.topografix.com/GPX/1/1/gpx.xsd http://www.garmin.com/xmlschemas/GpxExtensions/v3 http://www8.garmin.com/xmlschemas/GpxExtensionsv3.xsd http://www.garmin.com/xmlschemas/WaypointExtension/v1 http://www8.garmin.com/xmlschemas/WaypointExtensionv1.xsd http://www.garmin.com/xmlschemas/TrackPointExtension/v1 http://www.garmin.com/xmlschemas/TrackPointExtensionv1.xsd"><metadata><link href="http://www.garmin.com"><text>Garmin International</text></link><time>2017-08-23T14:49:07Z</time></metadata><trk><name>Current Track: 23 AUG 2017 09:59</name><extensions><gpxx:TrackExtension><gpxx:DisplayColor>Cyan</gpxx:DisplayColor></gpxx:TrackExtension></extensions><trkseg><trkpt lat="51.9008334540" lon="-1.7614882998"><ele>135.68</ele><time>2017-08-23T08:59:08Z</time></trkpt><trkpt lat="51.9008834101" lon="-1.7615596298"><ele>135.68</ele><time>2017-08-23T08:59:21Z</time></trkpt><trkpt lat="51.9009229727" lon="-1.7615629826"><ele>135.68</ele><time>2017-08-23T08:59:26Z</time></trkpt><trkpt lat="51.9009813946" lon="-1.7615526728"><ele>135.68</ele><time>2017-08-23T08:59:36Z</time></trkpt><trkpt lat="51.9011321850" lon="-1.7614545207"><ele>135.20</ele><time>2017-08-23T08:59:53Z</time></trkpt><trkpt lat="51.9011999946" lon="-1.7614623159"><ele>135.20</ele><time>2017-08-23T08:59:57Z</time></trkpt><trkpt lat="51.9012310915" lon="-1.7614751402"><ele>135.20</ele><time>2017-08-23T08:59:59Z</time></trkpt><trkpt lat="51.9013916887" lon="-1.7613945901"><ele>134.72</ele><time>2017-08-23T09:00:18Z</time></trkpt><trkpt lat="51.9015411381" lon="-1.7612534389"><ele>135.20</ele><time>2017-08-23T09:00:31Z</time></trkpt><trkpt lat="51.9016765058" lon="-1.7611376010"><ele>135.20</ele><time>2017-08-23T09:00:48Z</time></trkpt><trkpt lat="51.9018151425" lon="-1.7610143870"><ele>134.72</ele><time>2017-08-23T09:01:08Z</time></trkpt><trkpt lat="51.9020631630" lon="-1.7609409615"><ele>135.20</ele><time>2017-08-23T09:01:28Z</time></trkpt><trkpt lat="51.9022161327" lon="-1.7608745769"><ele>135.68</ele><time>2017-08-23T09:01:46Z</time></trkpt><trkpt lat="51.9022643287" lon="-1.7608667817"><ele>136.16</ele><time>2017-08-23T09:01:52Z</time></trkpt><trkpt lat="51.9024589565" lon="-1.7607965413"><ele>136.16</ele><time>2017-08-23T09:02:11Z</time></trkpt><trkpt lat="51.9025221560" lon="-1.7606448289"><ele>135.68</ele><time>2017-08-23T09:02:24Z</time></trkpt><trkpt lat="51.9025374111" lon="-1.7606072780"><ele>135.68</ele><time>2017-08-23T09:02:26Z</time></trkpt><trkpt lat="51.9025436975" lon="-1.7603683937"><ele>136.16</ele><time>2017-08-23T09:02:42Z</time></trkpt><trkpt lat="51.9026258402" lon="-1.7601669766"><ele>136.16</ele><time>2017-08-23T09:02:58Z</time></trkpt><trkpt lat="51.9027650636" lon="-1.7600142583"><ele>135.68</ele><time>2017-08-23T09:03:17Z</time></trkpt><trkpt lat="51.9028032850" lon="-1.7599701695"><ele>136.16</ele><time>2017-08-23T09:03:36Z</time></trkpt><trkpt lat="51.9030607771" lon="-1.7597853485"><ele>135.68</ele><time>2017-08-23T09:03:55Z</time></trkpt><trkpt lat="51.9031493738" lon="-1.7597013619"><ele>136.16</ele><time>2017-08-23T09:04:16Z</time></trkpt><trkpt lat="51.9031697419" lon="-1.7596199736"><ele>136.64</ele><time>2017-08-23T09:04:36Z</time></trkpt><trkpt lat="51.9033567421" lon="-1.7593691032"><ele>135.68</ele><time>2017-08-23T09:04:59Z</time></trkpt><trkpt lat="51.9037555531" lon="-1.7591847852"><ele>136.64</ele><time>2017-08-23T09:05:20Z</time></trkpt><trkpt lat="51.9039091934" lon="-1.7589420453"><ele>134.24</ele><time>2017-08-23T09:05:41Z</time></trkpt><trkpt lat="51.9041146338" lon="-1.7588167358"><ele>135.68</ele><time>2017-08-23T09:06:00Z</time></trkpt><trkpt lat="51.9042728003" lon="-1.7586674541"><ele>136.16</ele><time>2017-08-23T09:06:24Z</time></trkpt><trkpt lat="51.9044047315" lon="-1.7585393786"><ele>136.16</ele><time>2017-08-23T09:06:43Z</time></trkpt><trkpt lat="51.9044424500" lon="-1.7583360337"><ele>137.61</ele><time>2017-08-23T09:07:02Z</time></trkpt><trkpt lat="51.9044535980" lon="-1.7582989857"><ele>134.72</ele><time>2017-08-23T09:07:09Z</time></trkpt><trkpt lat="51.9045951683" lon="-1.7581142485"><ele>137.13</ele><time>2017-08-23T09:07:25Z</time></trkpt><trkpt lat="51.9047423545" lon="-1.7580317706"><ele>136.16</ele><time>2017-08-23T09:07:37Z</time></trkpt><trkpt lat="51.9048368186" lon="-1.7578497995"><ele>136.64</ele><time>2017-08-23T09:07:57Z</time></trkpt><trkpt lat="51.9048734475" lon="-1.7577674892"><ele>136.64</ele><time>2017-08-23T09:08:14Z</time></trkpt><trkpt lat="51.9049128424" lon="-1.7576536629"><ele>136.64</ele><time>2017-08-23T09:08:29Z</time></trkpt><trkpt lat="51.9048656523" lon="-1.7576477118"><ele>136.64</ele><time>2017-08-23T09:08:49Z</time></trkpt><trkpt lat="51.9049292710" lon="-1.7576517351"><ele>136.16</ele><time>2017-08-23T09:09:10Z</time></trkpt><trkpt lat="51.9050300214" lon="-1.7575572710"><ele>136.64</ele><time>2017-08-23T09:09:23Z</time></trkpt><trkpt lat="51.9050474558" lon="-1.7575011961"><ele>137.61</ele><time>2017-08-23T09:09:30Z</time></trkpt><trkpt lat="51.9050498866" lon="-1.7574748769"><ele>135.68</ele><time>2017-08-23T09:09:32Z</time></trkpt><trkpt lat="51.9050853420" lon="-1.7574272677"><ele>137.13</ele><time>2017-08-23T09:09:37Z</time></trkpt><trkpt lat="51.9051492121" lon="-1.7573710252"><ele>136.64</ele><time>2017-08-23T09:09:45Z</time></trkpt><trkpt lat="51.9052872621" lon="-1.7572265211"><ele>137.61</ele><time>2017-08-23T09:09:59Z</time></trkpt><trkpt lat="51.9053572509" lon="-1.7571248487"><ele>137.61</ele><time>2017-08-23T09:10:12Z</time></trkpt><trkpt lat="51.9054953847" lon="-1.7570182309"><ele>137.13</ele><time>2017-08-23T09:10:24Z</time></trkpt><trkpt lat="51.9055647869" lon="-1.7569623236"><ele>138.09</ele><time>2017-08-23T09:10:31Z</time></trkpt><trkpt lat="51.9056046847" lon="-1.7569106910"><ele>137.61</ele><time>2017-08-23T09:10:37Z</time></trkpt><trkpt lat="51.9056367036" lon="-1.7568489164"><ele>137.13</ele><time>2017-08-23T09:10:42Z</time></trkpt><trkpt lat="51.9057244621" lon="-1.7567716353"><ele>136.16</ele><time>2017-08-23T09:10:53Z</time></trkpt><trkpt lat="51.9057512004" lon="-1.7567428853"><ele>138.57</ele><time>2017-08-23T09:10:56Z</time></trkpt><trkpt lat="51.9058364443" lon="-1.7566288915"><ele>138.09</ele><time>2017-08-23T09:11:09Z</time></trkpt><trkpt lat="51.9058428984" lon="-1.7566169053"><ele>137.61</ele><time>2017-08-23T09:11:10Z</time></trkpt><trkpt lat="51.9059526175" lon="-1.7564781010"><ele>138.09</ele><time>2017-08-23T09:11:25Z</time></trkpt><trkpt lat="51.9060628396" lon="-1.7563630175"><ele>138.09</ele><time>2017-08-23T09:11:36Z</time></trkpt><trkpt lat="51.9061492570" lon="-1.7562610935"><ele>138.09</ele><time>2017-08-23T09:11:46Z</time></trkpt><trkpt lat="51.9062180724" lon="-1.7562099639"><ele>138.57</ele><time>2017-08-23T09:11:54Z</time></trkpt><trkpt lat="51.9062544499" lon="-1.7561755981"><ele>138.57</ele><time>2017-08-23T09:11:59Z</time></trkpt><trkpt lat="51.9063406158" lon="-1.7560658790"><ele>138.09</ele><time>2017-08-23T09:12:10Z</time></trkpt><trkpt lat="51.9064153824" lon="-1.7559512146"><ele>138.57</ele><time>2017-08-23T09:12:23Z</time></trkpt><trkpt lat="51.9064271171" lon="-1.7559424974"><ele>139.05</ele><time>2017-08-23T09:12:24Z</time></trkpt><trkpt lat="51.9065294601" lon="-1.7558675632"><ele>139.05</ele><time>2017-08-23T09:12:35Z</time></trkpt><trkpt lat="51.9065810088" lon="-1.7558219656"><ele>138.57</ele><time>2017-08-23T09:12:42Z</time></trkpt><trkpt lat="51.9066893868" lon="-1.7557067983"><ele>137.61</ele><time>2017-08-23T09:12:54Z</time></trkpt><trkpt lat="51.9067143649" lon="-1.7556821555"><ele>140.01</ele><time>2017-08-23T09:12:57Z</time></trkpt><trkpt lat="51.9067307096" lon="-1.7556643020"><ele>138.57</ele><time>2017-08-23T09:12:59Z</time></trkpt><trkpt lat="51.9067698531" lon="-1.7556396592"><ele>137.61</ele><time>2017-08-23T09:13:03Z</time></trkpt><trkpt lat="51.9068434462" lon="-1.7555832490"><ele>139.05</ele><time>2017-08-23T09:13:11Z</time></trkpt><trkpt lat="51.9069334678" lon="-1.7554783914"><ele>139.53</ele><time>2017-08-23T09:13:22Z</time></trkpt><trkpt lat="51.9070313685" lon="-1.7553755455"><ele>139.53</ele><time>2017-08-23T09:13:33Z</time></trkpt><trkpt lat="51.9070546702" lon="-1.7553648166"><ele>140.49</ele><time>2017-08-23T09:13:35Z</time></trkpt><trkpt lat="51.9071203843" lon="-1.7552891281"><ele>139.05</ele><time>2017-08-23T09:13:43Z</time></trkpt><trkpt lat="51.9072389044" lon="-1.7551435344"><ele>140.97</ele><time>2017-08-23T09:13:56Z</time></trkpt><trkpt lat="51.9072682410" lon="-1.7551331408"><ele>140.01</ele><time>2017-08-23T09:14:00Z</time></trkpt><trkpt lat="51.9072970748" lon="-1.7551121861"><ele>140.97</ele><time>2017-08-23T09:14:03Z</time></trkpt><trkpt lat="51.9074240606" lon="-1.7550373357"><ele>138.57</ele><time>2017-08-23T09:14:15Z</time></trkpt><trkpt lat="51.9074653834" lon="-1.7549826857"><ele>140.97</ele><time>2017-08-23T09:14:20Z</time></trkpt><trkpt lat="51.9075565785" lon="-1.7549159657"><ele>139.05</ele><time>2017-08-23T09:14:31Z</time></trkpt><trkpt lat="51.9076603465" lon="-1.7548329011"><ele>140.01</ele><time>2017-08-23T09:14:43Z</time></trkpt><trkpt lat="51.9077148288" lon="-1.7547804303"><ele>140.49</ele><time>2017-08-23T09:14:50Z</time></trkpt><trkpt lat="51.9077732507" lon="-1.7547298037"><ele>139.53</ele><time>2017-08-23T09:14:57Z</time></trkpt><trkpt lat="51.9078177586" lon="-1.7546464875"><ele>140.49</ele><time>2017-08-23T09:15:04Z</time></trkpt><trkpt lat="51.9079360273" lon="-1.7545334157"><ele>140.49</ele><time>2017-08-23T09:15:16Z</time></trkpt><trkpt lat="51.9079427328" lon="-1.7545226030"><ele>140.97</ele><time>2017-08-23T09:15:17Z</time></trkpt><trkpt lat="51.9079882465" lon="-1.7544850521"><ele>141.45</ele><time>2017-08-23T09:15:22Z</time></trkpt><trkpt lat="51.9080542121" lon="-1.7544298992"><ele>140.97</ele><time>2017-08-23T09:15:31Z</time></trkpt><trkpt lat="51.9080868177" lon="-1.7544232775"><ele>140.01</ele><time>2017-08-23T09:15:34Z</time></trkpt><trkpt lat="51.9081748277" lon="-1.7543558870"><ele>141.93</ele><time>2017-08-23T09:15:45Z</time></trkpt><trkpt lat="51.9082660228" lon="-1.7542937770"><ele>141.45</ele><time>2017-08-23T09:15:56Z</time></trkpt><trkpt lat="51.9082339201" lon="-1.7541633546"><ele>141.45</ele><time>2017-08-23T09:16:07Z</time></trkpt><trkpt lat="51.9082331657" lon="-1.7541148234"><ele>139.53</ele><time>2017-08-23T09:16:10Z</time></trkpt><trkpt lat="51.9082494266" lon="-1.7539077066"><ele>140.97</ele><time>2017-08-23T09:16:24Z</time></trkpt><trkpt lat="51.9082450680" lon="-1.7539005820"><ele>140.01</ele><time>2017-08-23T09:16:25Z</time></trkpt><trkpt lat="51.9081941899" lon="-1.7537772004"><ele>140.49</ele><time>2017-08-23T09:16:40Z</time></trkpt><trkpt lat="51.9082206767" lon="-1.7537241429"><ele>140.49</ele><time>2017-08-23T09:16:52Z</time></trkpt><trkpt lat="51.9082893245" lon="-1.7536228057"><ele>140.97</ele><time>2017-08-23T09:17:06Z</time></trkpt><trkpt lat="51.9083016459" lon="-1.7536027730"><ele>140.49</ele><time>2017-08-23T09:17:22Z</time></trkpt><trkpt lat="51.9083187450" lon="-1.7535779625"><ele>140.49</ele><time>2017-08-23T09:17:25Z</time></trkpt><trkpt lat="51.9084160589" lon="-1.7535518948"><ele>140.49</ele><time>2017-08-23T09:17:37Z</time></trkpt><trkpt lat="51.9084804319" lon="-1.7535471171"><ele>140.97</ele><time>2017-08-23T09:17:44Z</time></trkpt><trkpt lat="51.9085070025" lon="-1.7535429262"><ele>141.45</ele><time>2017-08-23T09:17:46Z</time></trkpt><trkpt lat="51.9086619839" lon="-1.7535015196"><ele>140.97</ele><time>2017-08-23T09:18:01Z</time></trkpt><trkpt lat="51.9086930808" lon="-1.7534853425"><ele>140.97</ele><time>2017-08-23T09:18:04Z</time></trkpt><trkpt lat="51.9088064879" lon="-1.7533797305"><ele>141.45</ele><time>2017-08-23T09:18:16Z</time></trkpt><trkpt lat="51.9088148698" lon="-1.7533629667"><ele>141.45</ele><time>2017-08-23T09:18:17Z</time></trkpt><trkpt lat="51.9088583719" lon="-1.7532674968"><ele>141.93</ele><time>2017-08-23T09:18:25Z</time></trkpt><trkpt lat="51.9088656642" lon="-1.7532450333"><ele>141.93</ele><time>2017-08-23T09:18:27Z</time></trkpt><trkpt lat="51.9088950846" lon="-1.7531710211"><ele>141.45</ele><time>2017-08-23T09:18:32Z</time></trkpt><trkpt lat="51.9089249242" lon="-1.7531043012"><ele>141.93</ele><time>2017-08-23T09:18:37Z</time></trkpt><trkpt lat="51.9089701027" lon="-1.7529847752"><ele>142.41</ele><time>2017-08-23T09:18:44Z</time></trkpt><trkpt lat="51.9089982659" lon="-1.7529280297"><ele>141.93</ele><time>2017-08-23T09:18:49Z</time></trkpt><trkpt lat="51.9090697635" lon="-1.7526987009"><ele>142.89</ele><time>2017-08-23T09:19:03Z</time></trkpt><trkpt lat="51.9091516547" lon="-1.7525129579"><ele>141.93</ele><time>2017-08-23T09:19:16Z</time></trkpt><trkpt lat="51.9091750402" lon="-1.7524852976"><ele>142.41</ele><time>2017-08-23T09:19:19Z</time></trkpt><trkpt lat="51.9092016947" lon="-1.7524667736"><ele>142.89</ele><time>2017-08-23T09:19:34Z</time></trkpt><trkpt lat="51.9092997629" lon="-1.7524685338"><ele>142.89</ele><time>2017-08-23T09:19:48Z</time></trkpt><trkpt lat="51.9093457796" lon="-1.7524811905"><ele>141.93</ele><time>2017-08-23T09:20:03Z</time></trkpt><trkpt lat="51.9094052911" lon="-1.7524951044"><ele>142.41</ele><time>2017-08-23T09:20:24Z</time></trkpt><trkpt lat="51.9095362164" lon="-1.7524668574"><ele>142.41</ele><time>2017-08-23T09:20:38Z</time></trkpt><trkpt lat="51.9096853305" lon="-1.7524227686"><ele>141.93</ele><time>2017-08-23T09:20:52Z</time></trkpt><trkpt lat="51.9098456763" lon="-1.7523669451"><ele>142.41</ele><time>2017-08-23T09:21:09Z</time></trkpt><trkpt lat="51.9099841453" lon="-1.7522997223"><ele>140.97</ele><time>2017-08-23T09:21:24Z</time></trkpt><trkpt lat="51.9100991450" lon="-1.7522615846"><ele>142.89</ele><time>2017-08-23T09:21:37Z</time></trkpt><trkpt lat="51.9102187548" lon="-1.7522257101"><ele>142.41</ele><time>2017-08-23T09:21:51Z</time></trkpt><trkpt lat="51.9102270529" lon="-1.7522205133"><ele>142.41</ele><time>2017-08-23T09:21:52Z</time></trkpt><trkpt lat="51.9102589879" lon="-1.7522194237"><ele>141.93</ele><time>2017-08-23T09:21:55Z</time></trkpt><trkpt lat="51.9103309046" lon="-1.7521905899"><ele>142.41</ele><time>2017-08-23T09:22:03Z</time></trkpt><trkpt lat="51.9103930984" lon="-1.7521641869"><ele>141.93</ele><time>2017-08-23T09:22:09Z</time></trkpt><trkpt lat="51.9104009774" lon="-1.7521578167"><ele>142.41</ele><time>2017-08-23T09:22:10Z</time></trkpt><trkpt lat="51.9105897378" lon="-1.7521128058"><ele>142.41</ele><time>2017-08-23T09:22:27Z</time></trkpt><trkpt lat="51.9107034802" lon="-1.7520816252"><ele>142.89</ele><time>2017-08-23T09:22:39Z</time></trkpt><trkpt lat="51.9108235929" lon="-1.7520351894"><ele>142.41</ele><time>2017-08-23T09:22:52Z</time></trkpt><trkpt lat="51.9109513331" lon="-1.7519756779"><ele>143.37</ele><time>2017-08-23T09:23:05Z</time></trkpt><trkpt lat="51.9109825138" lon="-1.7519612610"><ele>143.37</ele><time>2017-08-23T09:23:08Z</time></trkpt><trkpt lat="51.9111561030" lon="-1.7519125622"><ele>143.37</ele><time>2017-08-23T09:23:23Z</time></trkpt><trkpt lat="51.9113032892" lon="-1.7518516257"><ele>143.37</ele><time>2017-08-23T09:23:36Z</time></trkpt><trkpt lat="51.9114666525" lon="-1.7518055253"><ele>143.85</ele><time>2017-08-23T09:23:53Z</time></trkpt><trkpt lat="51.9115227275" lon="-1.7517845705"><ele>144.34</ele><time>2017-08-23T09:24:00Z</time></trkpt><trkpt lat="51.9115438499" lon="-1.7517770268"><ele>143.85</ele><time>2017-08-23T09:24:02Z</time></trkpt><trkpt lat="51.9115851726" lon="-1.7517709080"><ele>144.34</ele><time>2017-08-23T09:24:22Z</time></trkpt><trkpt lat="51.9116170239" lon="-1.7518236302"><ele>144.82</ele><time>2017-08-23T09:24:34Z</time></trkpt><trkpt lat="51.9117003400" lon="-1.7520354409"><ele>145.30</ele><time>2017-08-23T09:24:52Z</time></trkpt><trkpt lat="51.9117497094" lon="-1.7523391172"><ele>145.78</ele><time>2017-08-23T09:25:09Z</time></trkpt><trkpt lat="51.9118221290" lon="-1.7526113614"><ele>147.22</ele><time>2017-08-23T09:25:27Z</time></trkpt><trkpt lat="51.9119196944" lon="-1.7529048957"><ele>149.14</ele><time>2017-08-23T09:25:48Z</time></trkpt><trkpt lat="51.9120008312" lon="-1.7530518305"><ele>148.66</ele><time>2017-08-23T09:26:07Z</time></trkpt><trkpt lat="51.9119993225" lon="-1.7530720308"><ele>148.66</ele><time>2017-08-23T09:26:23Z</time></trkpt><trkpt lat="51.9119947962" lon="-1.7531163711"><ele>148.18</ele><time>2017-08-23T09:26:37Z</time></trkpt><trkpt lat="51.9119823072" lon="-1.7532385793"><ele>149.14</ele><time>2017-08-23T09:26:52Z</time></trkpt><trkpt lat="51.9118954707" lon="-1.7533120047"><ele>149.14</ele><time>2017-08-23T09:27:06Z</time></trkpt><trkpt lat="51.9117334485" lon="-1.7534482945"><ele>149.62</ele><time>2017-08-23T09:27:22Z</time></trkpt><trkpt lat="51.9116186164" lon="-1.7535774596"><ele>149.14</ele><time>2017-08-23T09:27:37Z</time></trkpt><trkpt lat="51.9114734419" lon="-1.7537057027"><ele>149.14</ele><time>2017-08-23T09:27:55Z</time></trkpt><trkpt lat="51.9113507308" lon="-1.7538517155"><ele>149.14</ele><time>2017-08-23T09:28:11Z</time></trkpt><trkpt lat="51.9112857711" lon="-1.7539375462"><ele>149.14</ele><time>2017-08-23T09:28:20Z</time></trkpt><trkpt lat="51.9111631438" lon="-1.7540289089"><ele>148.66</ele><time>2017-08-23T09:28:33Z</time></trkpt><trkpt lat="51.9110237528" lon="-1.7542144842"><ele>148.66</ele><time>2017-08-23T09:28:54Z</time></trkpt><trkpt lat="51.9110029656" lon="-1.7542399652"><ele>149.14</ele><time>2017-08-23T09:28:56Z</time></trkpt><trkpt lat="51.9107842818" lon="-1.7544651031"><ele>149.14</ele><time>2017-08-23T09:29:20Z</time></trkpt><trkpt lat="51.9106336590" lon="-1.7546139657"><ele>149.14</ele><time>2017-08-23T09:29:37Z</time></trkpt><trkpt lat="51.9104785938" lon="-1.7548212502"><ele>148.66</ele><time>2017-08-23T09:29:54Z</time></trkpt><trkpt lat="51.9103367720" lon="-1.7550129443"><ele>149.14</ele><time>2017-08-23T09:30:14Z</time></trkpt><trkpt lat="51.9103169907" lon="-1.7550359946"><ele>149.62</ele><time>2017-08-23T09:30:16Z</time></trkpt><trkpt lat="51.9101941958" lon="-1.7552173790"><ele>148.66</ele><time>2017-08-23T09:30:32Z</time></trkpt><trkpt lat="51.9100055192" lon="-1.7554959096"><ele>150.10</ele><time>2017-08-23T09:30:56Z</time></trkpt><trkpt lat="51.9098994881" lon="-1.7556726839"><ele>150.10</ele><time>2017-08-23T09:31:14Z</time></trkpt><trkpt lat="51.9097556546" lon="-1.7559052818"><ele>150.58</ele><time>2017-08-23T09:31:32Z</time></trkpt><trkpt lat="51.9096134137" lon="-1.7560953833"><ele>151.54</ele><time>2017-08-23T09:31:54Z</time></trkpt><trkpt lat="51.9094231445" lon="-1.7563803680"><ele>152.03</ele><time>2017-08-23T09:32:15Z</time></trkpt><trkpt lat="51.9093812350" lon="-1.7565345112"><ele>152.51</ele><time>2017-08-23T09:32:31Z</time></trkpt><trkpt lat="51.9092627987" lon="-1.7566669453"><ele>152.51</ele><time>2017-08-23T09:32:49Z</time></trkpt><trkpt lat="51.9092566799" lon="-1.7566389497"><ele>152.51</ele><time>2017-08-23T09:33:13Z</time></trkpt><trkpt lat="51.9092133455" lon="-1.7567495909"><ele>152.51</ele><time>2017-08-23T09:33:33Z</time></trkpt><trkpt lat="51.9091297779" lon="-1.7569445539"><ele>152.51</ele><time>2017-08-23T09:33:54Z</time></trkpt><trkpt lat="51.9089850225" lon="-1.7571141198"><ele>152.99</ele><time>2017-08-23T09:34:12Z</time></trkpt><trkpt lat="51.9089069869" lon="-1.7571404390"><ele>153.47</ele><time>2017-08-23T09:34:32Z</time></trkpt><trkpt lat="51.9089445379" lon="-1.7572168820"><ele>153.47</ele><time>2017-08-23T09:34:53Z</time></trkpt><trkpt lat="51.9088872056" lon="-1.7572300415"><ele>153.47</ele><time>2017-08-23T09:35:08Z</time></trkpt><trkpt lat="51.9087227527" lon="-1.7575105838"><ele>158.75</ele><time>2017-08-23T09:35:30Z</time></trkpt><trkpt lat="51.9087206572" lon="-1.7575158644"><ele>154.91</ele><time>2017-08-23T09:35:31Z</time></trkpt><trkpt lat="51.9087152090" lon="-1.7575984262"><ele>154.43</ele><time>2017-08-23T09:35:40Z</time></trkpt><trkpt lat="51.9085984491" lon="-1.7579031084"><ele>155.87</ele><time>2017-08-23T09:36:01Z</time></trkpt><trkpt lat="51.9085935876" lon="-1.7580674775"><ele>154.91</ele><time>2017-08-23T09:36:09Z</time></trkpt><trkpt lat="51.9084824435" lon="-1.7583012488"><ele>155.39</ele><time>2017-08-23T09:36:29Z</time></trkpt><trkpt lat="51.9083914161" lon="-1.7585490178"><ele>154.91</ele><time>2017-08-23T09:36:47Z</time></trkpt><trkpt lat="51.9083780050" lon="-1.7585879099"><ele>155.87</ele><time>2017-08-23T09:36:49Z</time></trkpt><trkpt lat="51.9083106983" lon="-1.7590211704"><ele>155.39</ele><time>2017-08-23T09:37:09Z</time></trkpt><trkpt lat="51.9082674477" lon="-1.7591614835"><ele>155.39</ele><time>2017-08-23T09:37:26Z</time></trkpt><trkpt lat="51.9082024042" lon="-1.7594035529"><ele>155.39</ele><time>2017-08-23T09:37:45Z</time></trkpt><trkpt lat="51.9081511907" lon="-1.7597174551"><ele>155.87</ele><time>2017-08-23T09:38:08Z</time></trkpt><trkpt lat="51.9081328344" lon="-1.7598710954"><ele>155.87</ele><time>2017-08-23T09:38:23Z</time></trkpt><trkpt lat="51.9080975465" lon="-1.7602458503"><ele>155.87</ele><time>2017-08-23T09:38:47Z</time></trkpt><trkpt lat="51.9080977980" lon="-1.7602901906"><ele>156.35</ele><time>2017-08-23T09:39:08Z</time></trkpt><trkpt lat="51.9080739096" lon="-1.7605922744"><ele>155.87</ele><time>2017-08-23T09:39:29Z</time></trkpt><trkpt lat="51.9080738258" lon="-1.7606148217"><ele>156.35</ele><time>2017-08-23T09:39:30Z</time></trkpt><trkpt lat="51.9080625102" lon="-1.7608366068"><ele>155.39</ele><time>2017-08-23T09:39:48Z</time></trkpt><trkpt lat="51.9080418907" lon="-1.7610319890"><ele>155.87</ele><time>2017-08-23T09:40:05Z</time></trkpt><trkpt lat="51.9080448244" lon="-1.7610932607"><ele>155.39</ele><time>2017-08-23T09:40:10Z</time></trkpt><trkpt lat="51.9080869853" lon="-1.7613489088"><ele>154.91</ele><time>2017-08-23T09:40:28Z</time></trkpt><trkpt lat="51.9080874044" lon="-1.7613618169"><ele>155.39</ele><time>2017-08-23T09:40:29Z</time></trkpt><trkpt lat="51.9081008993" lon="-1.7614629865"><ele>155.39</ele><time>2017-08-23T09:40:36Z</time></trkpt><trkpt lat="51.9080961216" lon="-1.7617001943"><ele>155.39</ele><time>2017-08-23T09:40:55Z</time></trkpt><trkpt lat="51.9081008155" lon="-1.7620560899"><ele>154.91</ele><time>2017-08-23T09:41:12Z</time></trkpt><trkpt lat="51.9081362709" lon="-1.7622954771"><ele>154.91</ele><time>2017-08-23T09:41:30Z</time></trkpt><trkpt lat="51.9082303159" lon="-1.7624694854"><ele>155.87</ele><time>2017-08-23T09:41:48Z</time></trkpt><trkpt lat="51.9082457386" lon="-1.7624865007"><ele>154.43</ele><time>2017-08-23T09:41:50Z</time></trkpt><trkpt lat="51.9083523564" lon="-1.7627089564"><ele>154.43</ele><time>2017-08-23T09:42:10Z</time></trkpt><trkpt lat="51.9083467405" lon="-1.7627913505"><ele>154.91</ele><time>2017-08-23T09:42:16Z</time></trkpt><trkpt lat="51.9082954433" lon="-1.7629935220"><ele>153.95</ele><time>2017-08-23T09:42:25Z</time></trkpt><trkpt lat="51.9083189126" lon="-1.7632075120"><ele>154.43</ele><time>2017-08-23T09:42:40Z</time></trkpt><trkpt lat="51.9083158113" lon="-1.7632413749"><ele>154.91</ele><time>2017-08-23T09:42:58Z</time></trkpt><trkpt lat="51.9083650969" lon="-1.7633493338"><ele>150.58</ele><time>2017-08-23T09:43:05Z</time></trkpt><trkpt lat="51.9083724730" lon="-1.7633599788"><ele>154.91</ele><time>2017-08-23T09:43:06Z</time></trkpt><trkpt lat="51.9083997142" lon="-1.7633734737"><ele>151.54</ele><time>2017-08-23T09:43:12Z</time></trkpt><trkpt lat="51.9084034860" lon="-1.7633712105"><ele>154.91</ele><time>2017-08-23T09:43:13Z</time></trkpt><trkpt lat="51.9084155560" lon="-1.7633736413"><ele>159.24</ele><time>2017-08-23T09:43:21Z</time></trkpt><trkpt lat="51.9084163941" lon="-1.7633733060"><ele>153.47</ele><time>2017-08-23T09:43:22Z</time></trkpt><trkpt lat="51.9084472395" lon="-1.7633712105"><ele>156.83</ele><time>2017-08-23T09:43:24Z</time></trkpt><trkpt lat="51.9084971119" lon="-1.7633966915"><ele>156.83</ele><time>2017-08-23T09:43:29Z</time></trkpt><trkpt lat="51.9085227605" lon="-1.7634057440"><ele>154.91</ele><time>2017-08-23T09:43:31Z</time></trkpt><trkpt lat="51.9085586350" lon="-1.7634191550"><ele>159.24</ele><time>2017-08-23T09:43:34Z</time></trkpt><trkpt lat="51.9085873011" lon="-1.7634305544"><ele>155.87</ele><time>2017-08-23T09:43:37Z</time></trkpt><trkpt lat="51.9086117763" lon="-1.7634372599"><ele>158.27</ele><time>2017-08-23T09:43:39Z</time></trkpt><trkpt lat="51.9086216670" lon="-1.7634366732"><ele>160.68</ele><time>2017-08-23T09:43:40Z</time></trkpt><trkpt lat="51.9086313061" lon="-1.7634340748"><ele>156.83</ele><time>2017-08-23T09:43:41Z</time></trkpt><trkpt lat="51.9086397719" lon="-1.7634318117"><ele>158.27</ele><time>2017-08-23T09:43:42Z</time></trkpt><trkpt lat="51.9087938312" lon="-1.7634119466"><ele>161.64</ele><time>2017-08-23T09:43:59Z</time></trkpt><trkpt lat="51.9089105073" lon="-1.7634320632"><ele>162.60</ele><time>2017-08-23T09:44:13Z</time></trkpt><trkpt lat="51.9090089109" lon="-1.7634599749"><ele>161.16</ele><time>2017-08-23T09:44:26Z</time></trkpt><trkpt lat="51.9090443663" lon="-1.7634660937"><ele>164.52</ele><time>2017-08-23T09:44:29Z</time></trkpt><trkpt lat="51.9090551790" lon="-1.7634652555"><ele>161.16</ele><time>2017-08-23T09:44:30Z</time></trkpt><trkpt lat="51.9090818334" lon="-1.7634638306"><ele>163.56</ele><time>2017-08-23T09:44:33Z</time></trkpt><trkpt lat="51.9091375731" lon="-1.7635250185"><ele>165.96</ele><time>2017-08-23T09:44:50Z</time></trkpt><trkpt lat="51.9091617130" lon="-1.7635296285"><ele>162.12</ele><time>2017-08-23T09:44:56Z</time></trkpt><trkpt lat="51.9091622159" lon="-1.7635302991"><ele>165.00</ele><time>2017-08-23T09:44:58Z</time></trkpt><trkpt lat="51.9091695081" lon="-1.7635449674"><ele>163.08</ele><time>2017-08-23T09:45:00Z</time></trkpt><trkpt lat="51.9092203863" lon="-1.7635553610"><ele>165.96</ele><time>2017-08-23T09:45:08Z</time></trkpt><trkpt lat="51.9093086477" lon="-1.7635773215"><ele>166.93</ele><time>2017-08-23T09:45:18Z</time></trkpt><trkpt lat="51.9093302730" lon="-1.7636876274"><ele>167.89</ele><time>2017-08-23T09:45:25Z</time></trkpt><trkpt lat="51.9094430935" lon="-1.7637725361"><ele>168.85</ele><time>2017-08-23T09:45:43Z</time></trkpt><trkpt lat="51.9094301015" lon="-1.7637895513"><ele>168.85</ele><time>2017-08-23T09:46:04Z</time></trkpt><trkpt lat="51.9094455242" lon="-1.7637266871"><ele>171.25</ele><time>2017-08-23T09:46:30Z</time></trkpt><trkpt lat="51.9094576780" lon="-1.7637242563"><ele>170.29</ele><time>2017-08-23T09:46:31Z</time></trkpt><trkpt lat="51.9095632900" lon="-1.7638162896"><ele>172.69</ele><time>2017-08-23T09:46:44Z</time></trkpt><trkpt lat="51.9095741864" lon="-1.7638376635"><ele>168.85</ele><time>2017-08-23T09:46:46Z</time></trkpt><trkpt lat="51.9096005894" lon="-1.7638768069"><ele>171.73</ele><time>2017-08-23T09:46:49Z</time></trkpt><trkpt lat="51.9096549042" lon="-1.7639315408"><ele>170.29</ele><time>2017-08-23T09:46:54Z</time></trkpt><trkpt lat="51.9098083768" lon="-1.7640245799"><ele>170.29</ele><time>2017-08-23T09:47:11Z</time></trkpt><trkpt lat="51.9098740909" lon="-1.7640301958"><ele>174.14</ele><time>2017-08-23T09:47:19Z</time></trkpt><trkpt lat="51.9100739155" lon="-1.7640580237"><ele>173.66</ele><time>2017-08-23T09:47:43Z</time></trkpt><trkpt lat="51.9101411384" lon="-1.7640258372"><ele>175.58</ele><time>2017-08-23T09:47:51Z</time></trkpt><trkpt lat="51.9101574831" lon="-1.7640697584"><ele>172.69</ele><time>2017-08-23T09:47:52Z</time></trkpt><trkpt lat="51.9101988059" lon="-1.7641114164"><ele>175.58</ele><time>2017-08-23T09:48:13Z</time></trkpt><trkpt lat="51.9101988897" lon="-1.7641250789"><ele>172.21</ele><time>2017-08-23T09:48:14Z</time></trkpt><trkpt lat="51.9101960398" lon="-1.7641253304"><ele>175.10</ele><time>2017-08-23T09:48:16Z</time></trkpt><trkpt lat="51.9102810323" lon="-1.7639685050"><ele>175.10</ele><time>2017-08-23T09:48:34Z</time></trkpt><trkpt lat="51.9102915097" lon="-1.7639006954"><ele>177.98</ele><time>2017-08-23T09:48:46Z</time></trkpt><trkpt lat="51.9104352593" lon="-1.7638558522"><ele>177.98</ele><time>2017-08-23T09:49:07Z</time></trkpt><trkpt lat="51.9104744028" lon="-1.7638497334"><ele>181.83</ele><time>2017-08-23T09:49:12Z</time></trkpt><trkpt lat="51.9104787614" lon="-1.7638538405"><ele>178.46</ele><time>2017-08-23T09:49:13Z</time></trkpt><trkpt lat="51.9104992133" lon="-1.7638269346"><ele>180.38</ele><time>2017-08-23T09:49:31Z</time></trkpt><trkpt lat="51.9105222635" lon="-1.7637843546"><ele>180.87</ele><time>2017-08-23T09:49:49Z</time></trkpt><trkpt lat="51.9105448108" lon="-1.7636722047"><ele>182.79</ele><time>2017-08-23T09:50:09Z</time></trkpt><trkpt lat="51.9105533604" lon="-1.7636505794"><ele>182.79</ele><time>2017-08-23T09:50:10Z</time></trkpt><trkpt lat="51.9107893109" lon="-1.7635570373"><ele>181.83</ele><time>2017-08-23T09:50:32Z</time></trkpt><trkpt lat="51.9108106010" lon="-1.7635590490"><ele>184.23</ele><time>2017-08-23T09:50:34Z</time></trkpt><trkpt lat="51.9109775685" lon="-1.7634538561"><ele>185.19</ele><time>2017-08-23T09:50:55Z</time></trkpt><trkpt lat="51.9110229146" lon="-1.7634235974"><ele>188.56</ele><time>2017-08-23T09:51:09Z</time></trkpt><trkpt lat="51.9110274408" lon="-1.7634191550"><ele>184.71</ele><time>2017-08-23T09:51:10Z</time></trkpt><trkpt lat="51.9110929873" lon="-1.7635270301"><ele>188.08</ele><time>2017-08-23T09:51:25Z</time></trkpt><trkpt lat="51.9112485554" lon="-1.7635986116"><ele>187.59</ele><time>2017-08-23T09:51:46Z</time></trkpt><trkpt lat="51.9112011977" lon="-1.7636967637"><ele>185.67</ele><time>2017-08-23T09:52:04Z</time></trkpt><trkpt lat="51.9111794885" lon="-1.7638213187"><ele>186.63</ele><time>2017-08-23T09:52:25Z</time></trkpt><trkpt lat="51.9111618027" lon="-1.7638566066"><ele>192.40</ele><time>2017-08-23T09:52:33Z</time></trkpt><trkpt lat="51.9111596234" lon="-1.7638610490"><ele>186.63</ele><time>2017-08-23T09:52:34Z</time></trkpt><trkpt lat="51.9111574441" lon="-1.7638654076"><ele>187.11</ele><time>2017-08-23T09:52:35Z</time></trkpt><trkpt lat="51.9111508224" lon="-1.7638786510"><ele>188.08</ele><time>2017-08-23T09:52:38Z</time></trkpt><trkpt lat="51.9111463800" lon="-1.7638874520"><ele>187.11</ele><time>2017-08-23T09:52:40Z</time></trkpt><trkpt lat="51.9112893753" lon="-1.7637293693"><ele>188.56</ele><time>2017-08-23T09:52:58Z</time></trkpt><trkpt lat="51.9113061391" lon="-1.7637331411"><ele>187.59</ele><time>2017-08-23T09:53:02Z</time></trkpt><trkpt lat="51.9113585260" lon="-1.7636934109"><ele>187.59</ele><time>2017-08-23T09:53:04Z</time></trkpt><trkpt lat="51.9114759564" lon="-1.7638950795"><ele>187.59</ele><time>2017-08-23T09:59:43Z</time></trkpt><trkpt lat="51.9114576001" lon="-1.7639167048"><ele>189.52</ele><time>2017-08-23T09:59:55Z</time></trkpt><trkpt lat="51.9114573486" lon="-1.7639037967"><ele>187.59</ele><time>2017-08-23T09:59:57Z</time></trkpt><trkpt lat="51.9115128368" lon="-1.7635704484"><ele>189.04</ele><time>2017-08-23T10:00:19Z</time></trkpt><trkpt lat="51.9114947319" lon="-1.7635994498"><ele>189.52</ele><time>2017-08-23T10:00:39Z</time></trkpt><trkpt lat="51.9114653952" lon="-1.7634909879"><ele>189.52</ele><time>2017-08-23T10:01:00Z</time></trkpt><trkpt lat="51.9114767946" lon="-1.7634942569"><ele>192.40</ele><time>2017-08-23T10:01:03Z</time></trkpt><trkpt lat="51.9114894513" lon="-1.7634935025"><ele>189.04</ele><time>2017-08-23T10:01:06Z</time></trkpt><trkpt lat="51.9115388207" lon="-1.7634261958"><ele>190.00</ele><time>2017-08-23T10:01:24Z</time></trkpt><trkpt lat="51.9114770461" lon="-1.7633709591"><ele>190.00</ele><time>2017-08-23T10:01:47Z</time></trkpt><trkpt lat="51.9114711788" lon="-1.7633939255"><ele>190.00</ele><time>2017-08-23T10:01:58Z</time></trkpt><trkpt lat="51.9115041196" lon="-1.7634019721"><ele>190.48</ele><time>2017-08-23T10:02:16Z</time></trkpt><trkpt lat="51.9115459453" lon="-1.7633879744"><ele>190.00</ele><time>2017-08-23T10:02:37Z</time></trkpt><trkpt lat="51.9115626253" lon="-1.7633755691"><ele>190.48</ele><time>2017-08-23T10:02:59Z</time></trkpt><trkpt lat="51.9115596917" lon="-1.7633930035"><ele>189.52</ele><time>2017-08-23T10:03:22Z</time></trkpt><trkpt lat="51.9115428440" lon="-1.7634116113"><ele>183.75</ele><time>2017-08-23T10:03:34Z</time></trkpt><trkpt lat="51.9115406647" lon="-1.7634171434"><ele>195.77</ele><time>2017-08-23T10:03:35Z</time></trkpt><trkpt lat="51.9115407486" lon="-1.7634154670"><ele>190.00</ele><time>2017-08-23T10:03:36Z</time></trkpt><trkpt lat="51.9115648884" lon="-1.7633521836"><ele>190.48</ele><time>2017-08-23T10:03:54Z</time></trkpt><trkpt lat="51.9115704205" lon="-1.7633411195"><ele>190.48</ele><time>2017-08-23T10:04:17Z</time></trkpt><trkpt lat="51.9115650561" lon="-1.7633340787"><ele>190.00</ele><time>2017-08-23T10:04:38Z</time></trkpt><trkpt lat="51.9115349650" lon="-1.7633738928"><ele>190.00</ele><time>2017-08-23T10:04:58Z</time></trkpt><trkpt lat="51.9115893636" lon="-1.7633131240"><ele>189.52</ele><time>2017-08-23T10:05:18Z</time></trkpt><trkpt lat="51.9115575124" lon="-1.7633437179"><ele>189.52</ele><time>2017-08-23T10:05:43Z</time></trkpt><trkpt lat="51.9115038682" lon="-1.7633531895"><ele>189.52</ele><time>2017-08-23T10:06:02Z</time></trkpt><trkpt lat="51.9115094841" lon="-1.7632977013"><ele>190.00</ele><time>2017-08-23T10:06:21Z</time></trkpt><trkpt lat="51.9115181174" lon="-1.7633137107"><ele>190.00</ele><time>2017-08-23T10:06:45Z</time></trkpt><trkpt lat="51.9115178660" lon="-1.7634474020"><ele>190.00</ele><time>2017-08-23T10:07:05Z</time></trkpt><trkpt lat="51.9115610328" lon="-1.7633166444"><ele>190.48</ele><time>2017-08-23T10:07:25Z</time></trkpt><trkpt lat="51.9115350489" lon="-1.7632820271"><ele>190.48</ele><time>2017-08-23T10:07:46Z</time></trkpt><trkpt lat="51.9115302712" lon="-1.7633495852"><ele>190.48</ele><time>2017-08-23T10:08:08Z</time></trkpt><trkpt lat="51.9115523994" lon="-1.7633155547"><ele>190.48</ele><time>2017-08-23T10:08:32Z</time></trkpt><trkpt lat="51.9116499647" lon="-1.7632999644"><ele>190.96</ele><time>2017-08-23T10:08:50Z</time></trkpt><trkpt lat="51.9116090611" lon="-1.7633322347"><ele>191.44</ele><time>2017-08-23T10:09:08Z</time></trkpt><trkpt lat="51.9116555806" lon="-1.7633291334"><ele>191.44</ele><time>2017-08-23T10:09:24Z</time></trkpt><trkpt lat="51.9116569217" lon="-1.7632882297"><ele>191.44</ele><time>2017-08-23T10:09:43Z</time></trkpt><trkpt lat="51.9117092248" lon="-1.7632184923"><ele>191.92</ele><time>2017-08-23T10:10:02Z</time></trkpt><trkpt lat="51.9116132520" lon="-1.7631989624"><ele>191.92</ele><time>2017-08-23T10:10:27Z</time></trkpt><trkpt lat="51.9115808140" lon="-1.7631621659"><ele>191.92</ele><time>2017-08-23T10:10:54Z</time></trkpt><trkpt lat="51.9116091449" lon="-1.7632153071"><ele>192.40</ele><time>2017-08-23T10:11:13Z</time></trkpt><trkpt lat="51.9115942251" lon="-1.7632224318"><ele>192.40</ele><time>2017-08-23T10:11:38Z</time></trkpt><trkpt lat="51.9115897827" lon="-1.7632086854"><ele>192.88</ele><time>2017-08-23T10:12:01Z</time></trkpt><trkpt lat="51.9116102345" lon="-1.7632121220"><ele>192.40</ele><time>2017-08-23T10:12:19Z</time></trkpt><trkpt lat="51.9116269983" lon="-1.7632340826"><ele>197.69</ele><time>2017-08-23T10:12:29Z</time></trkpt><trkpt lat="51.9116228074" lon="-1.7632459011"><ele>190.96</ele><time>2017-08-23T10:12:30Z</time></trkpt><trkpt lat="51.9116098154" lon="-1.7632832006"><ele>197.21</ele><time>2017-08-23T10:12:33Z</time></trkpt><trkpt lat="51.9116065465" lon="-1.7632952705"><ele>192.40</ele><time>2017-08-23T10:12:34Z</time></trkpt><trkpt lat="51.9115888607" lon="-1.7633331567"><ele>192.88</ele><time>2017-08-23T10:12:52Z</time></trkpt><trkpt lat="51.9116192032" lon="-1.7632057518"><ele>192.40</ele><time>2017-08-23T10:13:09Z</time></trkpt><trkpt lat="51.9116434269" lon="-1.7631979566"><ele>192.40</ele><time>2017-08-23T10:13:34Z</time></trkpt><trkpt lat="51.9116524793" lon="-1.7631953582"><ele>191.44</ele><time>2017-08-23T10:13:40Z</time></trkpt><trkpt lat="51.9116767868" lon="-1.7631852161"><ele>194.32</ele><time>2017-08-23T10:13:43Z</time></trkpt><trkpt lat="51.9118086342" lon="-1.7631119583"><ele>192.40</ele><time>2017-08-23T10:13:56Z</time></trkpt><trkpt lat="51.9118383061" lon="-1.7630960327"><ele>193.36</ele><time>2017-08-23T10:14:14Z</time></trkpt><trkpt lat="51.9118378870" lon="-1.7630952783"><ele>188.08</ele><time>2017-08-23T10:14:16Z</time></trkpt><trkpt lat="51.9118374679" lon="-1.7630958650"><ele>193.84</ele><time>2017-08-23T10:14:17Z</time></trkpt><trkpt lat="51.9118476100" lon="-1.7630786821"><ele>193.84</ele><time>2017-08-23T10:14:39Z</time></trkpt><trkpt lat="51.9119493663" lon="-1.7630076874"><ele>194.32</ele><time>2017-08-23T10:14:52Z</time></trkpt><trkpt lat="51.9119768590" lon="-1.7629899178"><ele>193.36</ele><time>2017-08-23T10:14:55Z</time></trkpt><trkpt lat="51.9120237138" lon="-1.7629656103"><ele>194.80</ele><time>2017-08-23T10:14:59Z</time></trkpt><trkpt lat="51.9120530505" lon="-1.7629390396"><ele>192.88</ele><time>2017-08-23T10:15:02Z</time></trkpt><trkpt lat="51.9120843988" lon="-1.7629121337"><ele>194.80</ele><time>2017-08-23T10:15:05Z</time></trkpt><trkpt lat="51.9120909367" lon="-1.7629093677"><ele>191.44</ele><time>2017-08-23T10:15:06Z</time></trkpt><trkpt lat="51.9121014979" lon="-1.7629051767"><ele>194.80</ele><time>2017-08-23T10:15:07Z</time></trkpt><trkpt lat="51.9122172520" lon="-1.7628403008"><ele>194.80</ele><time>2017-08-23T10:15:18Z</time></trkpt><trkpt lat="51.9122439902" lon="-1.7628185917"><ele>195.28</ele><time>2017-08-23T10:15:21Z</time></trkpt><trkpt lat="51.9123206008" lon="-1.7627472617"><ele>196.73</ele><time>2017-08-23T10:15:28Z</time></trkpt><trkpt lat="51.9123676233" lon="-1.7627224512"><ele>196.25</ele><time>2017-08-23T10:15:33Z</time></trkpt><trkpt lat="51.9123980496" lon="-1.7626988143"><ele>196.25</ele><time>2017-08-23T10:15:37Z</time></trkpt><trkpt lat="51.9124791864" lon="-1.7626550607"><ele>196.25</ele><time>2017-08-23T10:15:45Z</time></trkpt><trkpt lat="51.9126229361" lon="-1.7625602614"><ele>196.73</ele><time>2017-08-23T10:15:58Z</time></trkpt><trkpt lat="51.9127649255" lon="-1.7624912784"><ele>197.69</ele><time>2017-08-23T10:16:11Z</time></trkpt><trkpt lat="51.9128736388" lon="-1.7624520510"><ele>198.65</ele><time>2017-08-23T10:16:20Z</time></trkpt><trkpt lat="51.9129438791" lon="-1.7624419089"><ele>199.13</ele><time>2017-08-23T10:16:26Z</time></trkpt><trkpt lat="51.9130218308" lon="-1.7624227982"><ele>197.69</ele><time>2017-08-23T10:16:32Z</time></trkpt><trkpt lat="51.9130437076" lon="-1.7624159250"><ele>199.13</ele><time>2017-08-23T10:16:34Z</time></trkpt><trkpt lat="51.9130862877" lon="-1.7624091357"><ele>197.69</ele><time>2017-08-23T10:16:38Z</time></trkpt><trkpt lat="51.9131093379" lon="-1.7624074593"><ele>199.13</ele><time>2017-08-23T10:16:40Z</time></trkpt><trkpt lat="51.9132168777" lon="-1.7623849120"><ele>200.09</ele><time>2017-08-23T10:16:49Z</time></trkpt><trkpt lat="51.9132493995" lon="-1.7623766139"><ele>198.65</ele><time>2017-08-23T10:16:52Z</time></trkpt><trkpt lat="51.9133736193" lon="-1.7623383924"><ele>200.57</ele><time>2017-08-23T10:17:02Z</time></trkpt><trkpt lat="51.9134548400" lon="-1.7623427510"><ele>200.09</ele><time>2017-08-23T10:17:08Z</time></trkpt><trkpt lat="51.9136446062" lon="-1.7623091396"><ele>201.53</ele><time>2017-08-23T10:17:24Z</time></trkpt><trkpt lat="51.9137093145" lon="-1.7622990813"><ele>202.01</ele><time>2017-08-23T10:17:30Z</time></trkpt><trkpt lat="51.9137574267" lon="-1.7622818146"><ele>202.01</ele><time>2017-08-23T10:17:43Z</time></trkpt><trkpt lat="51.9138585962" lon="-1.7623539828"><ele>202.98</ele><time>2017-08-23T10:18:01Z</time></trkpt><trkpt lat="51.9138893578" lon="-1.7623908632"><ele>202.49</ele><time>2017-08-23T10:18:05Z</time></trkpt><trkpt lat="51.9139579218" lon="-1.7624191940"><ele>202.98</ele><time>2017-08-23T10:18:22Z</time></trkpt><trkpt lat="51.9141207822" lon="-1.7625158373"><ele>203.46</ele><time>2017-08-23T10:18:38Z</time></trkpt><trkpt lat="51.9142760150" lon="-1.7626279034"><ele>204.42</ele><time>2017-08-23T10:18:58Z</time></trkpt><trkpt lat="51.9143012445" lon="-1.7626476008"><ele>201.05</ele><time>2017-08-23T10:19:05Z</time></trkpt><trkpt lat="51.9143015798" lon="-1.7626476008"><ele>203.94</ele><time>2017-08-23T10:19:06Z</time></trkpt><trkpt lat="51.9143254682" lon="-1.7626542225"><ele>204.42</ele><time>2017-08-23T10:19:23Z</time></trkpt><trkpt lat="51.9143415615" lon="-1.7626217846"><ele>203.46</ele><time>2017-08-23T10:19:42Z</time></trkpt><trkpt lat="51.9143608399" lon="-1.7626466788"><ele>203.94</ele><time>2017-08-23T10:20:00Z</time></trkpt><trkpt lat="51.9143113028" lon="-1.7628228664"><ele>204.42</ele><time>2017-08-23T10:20:13Z</time></trkpt><trkpt lat="51.9142956287" lon="-1.7628633510"><ele>204.90</ele><time>2017-08-23T10:20:16Z</time></trkpt><trkpt lat="51.9142598379" lon="-1.7630302347"><ele>205.86</ele><time>2017-08-23T10:20:27Z</time></trkpt><trkpt lat="51.9142388832" lon="-1.7631151434"><ele>205.38</ele><time>2017-08-23T10:20:32Z</time></trkpt><trkpt lat="51.9142218679" lon="-1.7632408720"><ele>205.38</ele><time>2017-08-23T10:20:49Z</time></trkpt><trkpt lat="51.9142248854" lon="-1.7632543668"><ele>204.90</ele><time>2017-08-23T10:21:06Z</time></trkpt><trkpt lat="51.9142182637" lon="-1.7632325739"><ele>205.38</ele><time>2017-08-23T10:21:29Z</time></trkpt><trkpt lat="51.9142025895" lon="-1.7632272933"><ele>204.90</ele><time>2017-08-23T10:21:47Z</time></trkpt><trkpt lat="51.9142056070" lon="-1.7632539477"><ele>204.90</ele><time>2017-08-23T10:22:05Z</time></trkpt><trkpt lat="51.9141701516" lon="-1.7633519322"><ele>205.38</ele><time>2017-08-23T10:22:25Z</time></trkpt><trkpt lat="51.9141585846" lon="-1.7634165566"><ele>205.86</ele><time>2017-08-23T10:22:40Z</time></trkpt><trkpt lat="51.9141138252" lon="-1.7635509185"><ele>205.38</ele><time>2017-08-23T10:22:59Z</time></trkpt><trkpt lat="51.9140284974" lon="-1.7638019565"><ele>205.86</ele><time>2017-08-23T10:23:15Z</time></trkpt><trkpt lat="51.9139384758" lon="-1.7640828341"><ele>206.34</ele><time>2017-08-23T10:23:33Z</time></trkpt><trkpt lat="51.9138465263" lon="-1.7642902862"><ele>206.34</ele><time>2017-08-23T10:23:51Z</time></trkpt><trkpt lat="51.9137576781" lon="-1.7645047791"><ele>206.34</ele><time>2017-08-23T10:24:06Z</time></trkpt><trkpt lat="51.9136974961" lon="-1.7646653764"><ele>205.86</ele><time>2017-08-23T10:24:21Z</time></trkpt><trkpt lat="51.9136044569" lon="-1.7648972198"><ele>205.86</ele><time>2017-08-23T10:24:36Z</time></trkpt><trkpt lat="51.9135020301" lon="-1.7651421390"><ele>204.42</ele><time>2017-08-23T10:24:52Z</time></trkpt><trkpt lat="51.9134198874" lon="-1.7653085198"><ele>203.94</ele><time>2017-08-23T10:25:08Z</time></trkpt><trkpt lat="51.9132571109" lon="-1.7655957676"><ele>203.46</ele><time>2017-08-23T10:25:27Z</time></trkpt><trkpt lat="51.9131602999" lon="-1.7657209095"><ele>202.98</ele><time>2017-08-23T10:25:39Z</time></trkpt><trkpt lat="51.9130416121" lon="-1.7660441156"><ele>201.53</ele><time>2017-08-23T10:26:01Z</time></trkpt><trkpt lat="51.9130209927" lon="-1.7661706824"><ele>200.09</ele><time>2017-08-23T10:26:18Z</time></trkpt><trkpt lat="51.9128582161" lon="-1.7664684914"><ele>198.17</ele><time>2017-08-23T10:26:38Z</time></trkpt><trkpt lat="51.9128627423" lon="-1.7665104009"><ele>196.73</ele><time>2017-08-23T10:26:54Z</time></trkpt><trkpt lat="51.9128265325" lon="-1.7665713374"><ele>196.25</ele><time>2017-08-23T10:27:10Z</time></trkpt><trkpt lat="51.9128322322" lon="-1.7666311003"><ele>196.73</ele><time>2017-08-23T10:27:27Z</time></trkpt><trkpt lat="51.9128467329" lon="-1.7666378897"><ele>197.21</ele><time>2017-08-23T10:27:52Z</time></trkpt><trkpt lat="51.9128658436" lon="-1.7666335311"><ele>197.69</ele><time>2017-08-23T10:28:04Z</time></trkpt><trkpt lat="51.9128667656" lon="-1.7666338664"><ele>195.28</ele><time>2017-08-23T10:28:05Z</time></trkpt><trkpt lat="51.9128675200" lon="-1.7666351236"><ele>197.21</ele><time>2017-08-23T10:28:06Z</time></trkpt><trkpt lat="51.9128768239" lon="-1.7666449305"><ele>198.17</ele><time>2017-08-23T10:28:09Z</time></trkpt><trkpt lat="51.9129187334" lon="-1.7666773684"><ele>197.69</ele><time>2017-08-23T10:28:30Z</time></trkpt><trkpt lat="51.9129269477" lon="-1.7666776199"><ele>198.17</ele><time>2017-08-23T10:28:34Z</time></trkpt><trkpt lat="51.9129282888" lon="-1.7666775361"><ele>196.25</ele><time>2017-08-23T10:28:35Z</time></trkpt><trkpt lat="51.9129314739" lon="-1.7666816432"><ele>198.17</ele><time>2017-08-23T10:28:36Z</time></trkpt><trkpt lat="51.9129393529" lon="-1.7666820623"><ele>196.25</ele><time>2017-08-23T10:28:37Z</time></trkpt><trkpt lat="51.9129425380" lon="-1.7666824814"><ele>197.69</ele><time>2017-08-23T10:28:38Z</time></trkpt><trkpt lat="51.9129655045" lon="-1.7667827290"><ele>197.21</ele><time>2017-08-23T10:28:54Z</time></trkpt><trkpt lat="51.9129940867" lon="-1.7669507023"><ele>196.73</ele><time>2017-08-23T10:29:12Z</time></trkpt><trkpt lat="51.9130995311" lon="-1.7671393789"><ele>196.73</ele><time>2017-08-23T10:29:32Z</time></trkpt><trkpt lat="51.9131074939" lon="-1.7671452463"><ele>197.21</ele><time>2017-08-23T10:30:02Z</time></trkpt><trkpt lat="51.9131107628" lon="-1.7671422288"><ele>188.08</ele><time>2017-08-23T10:30:21Z</time></trkpt><trkpt lat="51.9131108467" lon="-1.7671428155"><ele>195.28</ele><time>2017-08-23T10:30:22Z</time></trkpt><trkpt lat="51.9131109305" lon="-1.7671430670"><ele>202.49</ele><time>2017-08-23T10:30:23Z</time></trkpt><trkpt lat="51.9131110981" lon="-1.7671428993"><ele>199.13</ele><time>2017-08-23T10:30:24Z</time></trkpt><trkpt lat="51.9131333102" lon="-1.7671278119"><ele>198.65</ele><time>2017-08-23T10:30:27Z</time></trkpt><trkpt lat="51.9132710248" lon="-1.7671589926"><ele>198.17</ele><time>2017-08-23T10:30:42Z</time></trkpt><trkpt lat="51.9133736193" lon="-1.7672895826"><ele>196.73</ele><time>2017-08-23T10:30:53Z</time></trkpt><trkpt lat="51.9134786446" lon="-1.7674009781"><ele>197.21</ele><time>2017-08-23T10:31:06Z</time></trkpt><trkpt lat="51.9136064686" lon="-1.7675563786"><ele>195.77</ele><time>2017-08-23T10:31:21Z</time></trkpt><trkpt lat="51.9136323687" lon="-1.7675896548"><ele>196.73</ele><time>2017-08-23T10:31:24Z</time></trkpt><trkpt lat="51.9137443509" lon="-1.7676948477"><ele>196.25</ele><time>2017-08-23T10:31:36Z</time></trkpt><trkpt lat="51.9138762821" lon="-1.7677946761"><ele>196.25</ele><time>2017-08-23T10:31:50Z</time></trkpt><trkpt lat="51.9139235560" lon="-1.7678307183"><ele>195.77</ele><time>2017-08-23T10:31:55Z</time></trkpt><trkpt lat="51.9140791241" lon="-1.7679114360"><ele>196.25</ele><time>2017-08-23T10:32:11Z</time></trkpt><trkpt lat="51.9142252207" lon="-1.7679797485"><ele>195.77</ele><time>2017-08-23T10:32:27Z</time></trkpt><trkpt lat="51.9143717363" lon="-1.7680224124"><ele>195.28</ele><time>2017-08-23T10:32:42Z</time></trkpt><trkpt lat="51.9145299029" lon="-1.7680727877"><ele>193.84</ele><time>2017-08-23T10:32:59Z</time></trkpt><trkpt lat="51.9146109559" lon="-1.7681141105"><ele>193.36</ele><time>2017-08-23T10:33:12Z</time></trkpt><trkpt lat="51.9147119578" lon="-1.7681400944"><ele>191.92</ele><time>2017-08-23T10:33:20Z</time></trkpt><trkpt lat="51.9147253688" lon="-1.7681509070"><ele>192.40</ele><time>2017-08-23T10:33:22Z</time></trkpt><trkpt lat="51.9147801865" lon="-1.7681609653"><ele>192.40</ele><time>2017-08-23T10:33:26Z</time></trkpt><trkpt lat="51.9149584696" lon="-1.7681965884"><ele>190.00</ele><time>2017-08-23T10:33:42Z</time></trkpt><trkpt lat="51.9150499161" lon="-1.7682881188"><ele>188.08</ele><time>2017-08-23T10:33:56Z</time></trkpt><trkpt lat="51.9151038956" lon="-1.7684095725"><ele>189.04</ele><time>2017-08-23T10:34:16Z</time></trkpt><trkpt lat="51.9152268581" lon="-1.7683612090"><ele>189.04</ele><time>2017-08-23T10:34:35Z</time></trkpt><trkpt lat="51.9152894709" lon="-1.7684065551"><ele>191.92</ele><time>2017-08-23T10:34:54Z</time></trkpt><trkpt lat="51.9154971745" lon="-1.7684256658"><ele>192.88</ele><time>2017-08-23T10:35:15Z</time></trkpt><trkpt lat="51.9156539161" lon="-1.7684662342"><ele>191.44</ele><time>2017-08-23T10:35:33Z</time></trkpt><trkpt lat="51.9158128370" lon="-1.7685561720"><ele>189.52</ele><time>2017-08-23T10:35:54Z</time></trkpt><trkpt lat="51.9158330373" lon="-1.7685594410"><ele>189.52</ele><time>2017-08-23T10:36:11Z</time></trkpt><trkpt lat="51.9159849174" lon="-1.7686436791"><ele>189.04</ele><time>2017-08-23T10:36:27Z</time></trkpt><trkpt lat="51.9161145017" lon="-1.7687409930"><ele>188.08</ele><time>2017-08-23T10:36:45Z</time></trkpt><trkpt lat="51.9162231311" lon="-1.7688374687"><ele>188.08</ele><time>2017-08-23T10:37:06Z</time></trkpt><trkpt lat="51.9163019210" lon="-1.7690272350"><ele>186.15</ele><time>2017-08-23T10:37:22Z</time></trkpt><trkpt lat="51.9163048547" lon="-1.7690339405"><ele>174.14</ele><time>2017-08-23T10:37:23Z</time></trkpt><trkpt lat="51.9163100515" lon="-1.7690461781"><ele>191.44</ele><time>2017-08-23T10:37:24Z</time></trkpt><trkpt lat="51.9163152482" lon="-1.7690584157"><ele>187.11</ele><time>2017-08-23T10:37:25Z</time></trkpt><trkpt lat="51.9163225405" lon="-1.7690755986"><ele>187.11</ele><time>2017-08-23T10:37:26Z</time></trkpt><trkpt lat="51.9163715746" lon="-1.7690151650"><ele>186.63</ele><time>2017-08-23T10:37:45Z</time></trkpt><trkpt lat="51.9163593370" lon="-1.7688532267"><ele>188.08</ele><time>2017-08-23T10:38:01Z</time></trkpt><trkpt lat="51.9165466726" lon="-1.7689020094"><ele>190.00</ele><time>2017-08-23T10:38:18Z</time></trkpt><trkpt lat="51.9165731594" lon="-1.7689086311"><ele>187.11</ele><time>2017-08-23T10:38:20Z</time></trkpt><trkpt lat="51.9168351777" lon="-1.7689057812"><ele>189.52</ele><time>2017-08-23T10:38:37Z</time></trkpt><trkpt lat="51.9168153964" lon="-1.7689668853"><ele>190.00</ele><time>2017-08-23T10:38:55Z</time></trkpt><trkpt lat="51.9168320764" lon="-1.7689985689"><ele>191.44</ele><time>2017-08-23T10:38:58Z</time></trkpt><trkpt lat="51.9168749917" lon="-1.7690538056"><ele>191.44</ele><time>2017-08-23T10:39:03Z</time></trkpt><trkpt lat="51.9170688652" lon="-1.7690841481"><ele>191.92</ele><time>2017-08-23T10:39:20Z</time></trkpt><trkpt lat="51.9172393531" lon="-1.7691716552"><ele>193.36</ele><time>2017-08-23T10:39:38Z</time></trkpt><trkpt lat="51.9172746409" lon="-1.7692138162"><ele>193.84</ele><time>2017-08-23T10:39:42Z</time></trkpt><trkpt lat="51.9173367508" lon="-1.7692187615"><ele>194.32</ele><time>2017-08-23T10:39:47Z</time></trkpt><trkpt lat="51.9175751321" lon="-1.7693076096"><ele>195.28</ele><time>2017-08-23T10:40:08Z</time></trkpt><trkpt lat="51.9177516550" lon="-1.7693922669"><ele>195.28</ele><time>2017-08-23T10:40:23Z</time></trkpt><trkpt lat="51.9178027008" lon="-1.7694030795"><ele>195.28</ele><time>2017-08-23T10:40:28Z</time></trkpt><trkpt lat="51.9180178642" lon="-1.7694624234"><ele>195.28</ele><time>2017-08-23T10:40:44Z</time></trkpt><trkpt lat="51.9181699958" lon="-1.7694860604"><ele>195.77</ele><time>2017-08-23T10:41:00Z</time></trkpt><trkpt lat="51.9182535633" lon="-1.7695598211"><ele>196.25</ele><time>2017-08-23T10:41:11Z</time></trkpt><trkpt lat="51.9183643721" lon="-1.7696447298"><ele>196.73</ele><time>2017-08-23T10:41:24Z</time></trkpt><trkpt lat="51.9185339380" lon="-1.7697117012"><ele>197.69</ele><time>2017-08-23T10:41:44Z</time></trkpt><trkpt lat="51.9187361095" lon="-1.7698529363"><ele>198.17</ele><time>2017-08-23T10:42:04Z</time></trkpt><trkpt lat="51.9188979641" lon="-1.7698966898"><ele>198.65</ele><time>2017-08-23T10:42:18Z</time></trkpt><trkpt lat="51.9190551247" lon="-1.7699918244"><ele>199.13</ele><time>2017-08-23T10:42:36Z</time></trkpt><trkpt lat="51.9191844575" lon="-1.7699902318"><ele>200.09</ele><time>2017-08-23T10:42:48Z</time></trkpt><trkpt lat="51.9193485752" lon="-1.7701030523"><ele>201.05</ele><time>2017-08-23T10:43:06Z</time></trkpt><trkpt lat="51.9194424525" lon="-1.7702032998"><ele>201.53</ele><time>2017-08-23T10:43:20Z</time></trkpt><trkpt lat="51.9195895549" lon="-1.7702508252"><ele>202.01</ele><time>2017-08-23T10:43:36Z</time></trkpt><trkpt lat="51.9197561871" lon="-1.7702852748"><ele>204.42</ele><time>2017-08-23T10:43:53Z</time></trkpt><trkpt lat="51.9198328815" lon="-1.7703210656"><ele>203.94</ele><time>2017-08-23T10:44:10Z</time></trkpt><trkpt lat="51.9198676664" lon="-1.7703030445"><ele>204.42</ele><time>2017-08-23T10:44:26Z</time></trkpt><trkpt lat="51.9198883697" lon="-1.7703275196"><ele>203.94</ele><time>2017-08-23T10:44:29Z</time></trkpt><trkpt lat="51.9200127572" lon="-1.7704037949"><ele>205.38</ele><time>2017-08-23T10:44:44Z</time></trkpt><trkpt lat="51.9200590253" lon="-1.7704860214"><ele>206.34</ele><time>2017-08-23T10:44:57Z</time></trkpt><trkpt lat="51.9200456981" lon="-1.7705386598"><ele>205.86</ele><time>2017-08-23T10:45:19Z</time></trkpt><trkpt lat="51.9199589454" lon="-1.7706799787"><ele>206.34</ele><time>2017-08-23T10:45:39Z</time></trkpt><trkpt lat="51.9197681732" lon="-1.7709955573"><ele>205.86</ele><time>2017-08-23T10:46:00Z</time></trkpt><trkpt lat="51.9196917303" lon="-1.7711624410"><ele>206.82</ele><time>2017-08-23T10:46:16Z</time></trkpt><trkpt lat="51.9196294528" lon="-1.7713352758"><ele>205.38</ele><time>2017-08-23T10:46:35Z</time></trkpt><trkpt lat="51.9195401855" lon="-1.7715431470"><ele>205.86</ele><time>2017-08-23T10:46:54Z</time></trkpt><trkpt lat="51.9195256848" lon="-1.7716403771"><ele>206.34</ele><time>2017-08-23T10:47:15Z</time></trkpt><trkpt lat="51.9194208272" lon="-1.7720689438"><ele>206.34</ele><time>2017-08-23T10:47:35Z</time></trkpt><trkpt lat="51.9194385968" lon="-1.7724011187"><ele>204.90</ele><time>2017-08-23T10:47:53Z</time></trkpt><trkpt lat="51.9194519240" lon="-1.7724897992"><ele>205.38</ele><time>2017-08-23T10:48:08Z</time></trkpt><trkpt lat="51.9194802549" lon="-1.7727388255"><ele>204.42</ele><time>2017-08-23T10:48:26Z</time></trkpt><trkpt lat="51.9195074122" lon="-1.7728536576"><ele>203.94</ele><time>2017-08-23T10:48:33Z</time></trkpt><trkpt lat="51.9194285385" lon="-1.7732305080"><ele>202.01</ele><time>2017-08-23T10:48:53Z</time></trkpt><trkpt lat="51.9193206634" lon="-1.7734996509"><ele>199.61</ele><time>2017-08-23T10:49:10Z</time></trkpt><trkpt lat="51.9192572124" lon="-1.7737689614"><ele>197.69</ele><time>2017-08-23T10:49:27Z</time></trkpt><trkpt lat="51.9192188233" lon="-1.7738513555"><ele>195.77</ele><time>2017-08-23T10:49:43Z</time></trkpt><trkpt lat="51.9192099385" lon="-1.7738714721"><ele>193.36</ele><time>2017-08-23T10:49:59Z</time></trkpt><trkpt lat="51.9191228505" lon="-1.7740671895"><ele>191.44</ele><time>2017-08-23T10:50:14Z</time></trkpt><trkpt lat="51.9188732374" lon="-1.7745286133"><ele>189.52</ele><time>2017-08-23T10:50:30Z</time></trkpt><trkpt lat="51.9187988061" lon="-1.7747029569"><ele>188.08</ele><time>2017-08-23T10:50:45Z</time></trkpt><trkpt lat="51.9187052641" lon="-1.7749392428"><ele>186.15</ele><time>2017-08-23T10:51:01Z</time></trkpt><trkpt lat="51.9186278991" lon="-1.7751248181"><ele>185.67</ele><time>2017-08-23T10:51:17Z</time></trkpt><trkpt lat="51.9185170904" lon="-1.7754065339"><ele>183.27</ele><time>2017-08-23T10:51:33Z</time></trkpt><trkpt lat="51.9184149150" lon="-1.7756110523"><ele>182.31</ele><time>2017-08-23T10:51:51Z</time></trkpt><trkpt lat="51.9183386397" lon="-1.7758107092"><ele>180.38</ele><time>2017-08-23T10:52:07Z</time></trkpt><trkpt lat="51.9182968978" lon="-1.7759131361"><ele>180.38</ele><time>2017-08-23T10:52:13Z</time></trkpt><trkpt lat="51.9182153419" lon="-1.7760574725"><ele>178.94</ele><time>2017-08-23T10:52:28Z</time></trkpt><trkpt lat="51.9182132464" lon="-1.7760710511"><ele>178.94</ele><time>2017-08-23T10:52:30Z</time></trkpt><trkpt lat="51.9180665631" lon="-1.7763086781"><ele>177.98</ele><time>2017-08-23T10:52:46Z</time></trkpt><trkpt lat="51.9179796427" lon="-1.7765037250"><ele>176.54</ele><time>2017-08-23T10:53:01Z</time></trkpt><trkpt lat="51.9179038703" lon="-1.7766537610"><ele>175.58</ele><time>2017-08-23T10:53:14Z</time></trkpt><trkpt lat="51.9178736955" lon="-1.7766953353"><ele>176.06</ele><time>2017-08-23T10:53:17Z</time></trkpt><trkpt lat="51.9177878648" lon="-1.7768468801"><ele>175.58</ele><time>2017-08-23T10:53:30Z</time></trkpt><trkpt lat="51.9177379925" lon="-1.7770178709"><ele>174.14</ele><time>2017-08-23T10:53:43Z</time></trkpt><trkpt lat="51.9176682550" lon="-1.7771104071"><ele>173.17</ele><time>2017-08-23T10:53:50Z</time></trkpt><trkpt lat="51.9175545964" lon="-1.7772539891"><ele>172.69</ele><time>2017-08-23T10:54:02Z</time></trkpt><trkpt lat="51.9175442029" lon="-1.7772645503"><ele>172.21</ele><time>2017-08-23T10:54:03Z</time></trkpt><trkpt lat="51.9174685143" lon="-1.7774150055"><ele>172.21</ele><time>2017-08-23T10:54:17Z</time></trkpt><trkpt lat="51.9173892215" lon="-1.7774944659"><ele>170.29</ele><time>2017-08-23T10:54:27Z</time></trkpt><trkpt lat="51.9173724577" lon="-1.7775167618"><ele>170.29</ele><time>2017-08-23T10:54:29Z</time></trkpt><trkpt lat="51.9173033908" lon="-1.7776546441"><ele>169.33</ele><time>2017-08-23T10:54:42Z</time></trkpt><trkpt lat="51.9172855373" lon="-1.7776863277"><ele>169.81</ele><time>2017-08-23T10:54:45Z</time></trkpt><trkpt lat="51.9171809312" lon="-1.7778608389"><ele>166.93</ele><time>2017-08-23T10:55:01Z</time></trkpt><trkpt lat="51.9170726370" lon="-1.7780657765"><ele>165.00</ele><time>2017-08-23T10:55:19Z</time></trkpt><trkpt lat="51.9169916678" lon="-1.7781770043"><ele>162.60</ele><time>2017-08-23T10:55:33Z</time></trkpt><trkpt lat="51.9168645144" lon="-1.7783572990"><ele>161.16</ele><time>2017-08-23T10:55:53Z</time></trkpt><trkpt lat="51.9168397877" lon="-1.7784235999"><ele>159.72</ele><time>2017-08-23T10:55:59Z</time></trkpt><trkpt lat="51.9167663623" lon="-1.7785659246"><ele>158.75</ele><time>2017-08-23T10:56:17Z</time></trkpt><trkpt lat="51.9166441541" lon="-1.7788416892"><ele>156.35</ele><time>2017-08-23T10:56:35Z</time></trkpt><trkpt lat="51.9165414758" lon="-1.7790224869"><ele>154.43</ele><time>2017-08-23T10:56:54Z</time></trkpt><trkpt lat="51.9163871650" lon="-1.7792192940"><ele>152.51</ele><time>2017-08-23T10:57:09Z</time></trkpt><trkpt lat="51.9163742568" lon="-1.7792192940"><ele>153.47</ele><time>2017-08-23T10:57:14Z</time></trkpt><trkpt lat="51.9163121469" lon="-1.7793253250"><ele>151.54</ele><time>2017-08-23T10:57:24Z</time></trkpt><trkpt lat="51.9162909407" lon="-1.7793893628"><ele>152.03</ele><time>2017-08-23T10:57:28Z</time></trkpt><trkpt lat="51.9162005000" lon="-1.7796067055"><ele>152.03</ele><time>2017-08-23T10:57:40Z</time></trkpt><trkpt lat="51.9161746837" lon="-1.7796637863"><ele>151.06</ele><time>2017-08-23T10:57:44Z</time></trkpt><trkpt lat="51.9161226321" lon="-1.7799087055"><ele>150.58</ele><time>2017-08-23T10:57:59Z</time></trkpt><trkpt lat="51.9161218777" lon="-1.7799071968"><ele>152.03</ele><time>2017-08-23T10:58:00Z</time></trkpt><trkpt lat="51.9161028508" lon="-1.7799019162"><ele>151.06</ele><time>2017-08-23T10:58:02Z</time></trkpt><trkpt lat="51.9160602707" lon="-1.7800657824"><ele>151.06</ele><time>2017-08-23T10:58:16Z</time></trkpt><trkpt lat="51.9159921259" lon="-1.7799499445"><ele>150.58</ele><time>2017-08-23T10:58:31Z</time></trkpt><trkpt lat="51.9159885217" lon="-1.7799329292"><ele>150.58</ele><time>2017-08-23T10:58:32Z</time></trkpt><trkpt lat="51.9159122463" lon="-1.7797803786"><ele>151.54</ele><time>2017-08-23T10:58:44Z</time></trkpt><trkpt lat="51.9157228153" lon="-1.7795032728"><ele>150.58</ele><time>2017-08-23T10:59:00Z</time></trkpt><trkpt lat="51.9155645650" lon="-1.7793734372"><ele>150.58</ele><time>2017-08-23T10:59:14Z</time></trkpt><trkpt lat="51.9155498128" lon="-1.7793794721"><ele>150.58</ele><time>2017-08-23T10:59:16Z</time></trkpt><trkpt lat="51.9153657462" lon="-1.7793867644"><ele>150.58</ele><time>2017-08-23T10:59:32Z</time></trkpt><trkpt lat="51.9153073244" lon="-1.7793924641"><ele>150.10</ele><time>2017-08-23T10:59:48Z</time></trkpt><trkpt lat="51.9152983557" lon="-1.7793949787"><ele>151.06</ele><time>2017-08-23T10:59:49Z</time></trkpt><trkpt lat="51.9151940010" lon="-1.7794916220"><ele>151.06</ele><time>2017-08-23T11:00:01Z</time></trkpt><trkpt lat="51.9151059072" lon="-1.7796954699"><ele>152.99</ele><time>2017-08-23T11:00:14Z</time></trkpt><trkpt lat="51.9150756486" lon="-1.7797496170"><ele>152.51</ele><time>2017-08-23T11:00:19Z</time></trkpt><trkpt lat="51.9149806816" lon="-1.7798964679"><ele>153.95</ele><time>2017-08-23T11:00:32Z</time></trkpt><trkpt lat="51.9149373472" lon="-1.7799271457"><ele>153.95</ele><time>2017-08-23T11:00:38Z</time></trkpt><trkpt lat="51.9147803541" lon="-1.7800571490"><ele>153.95</ele><time>2017-08-23T11:00:54Z</time></trkpt><trkpt lat="51.9147583935" lon="-1.7800786067"><ele>154.91</ele><time>2017-08-23T11:00:56Z</time></trkpt><trkpt lat="51.9146346767" lon="-1.7801896669"><ele>153.47</ele><time>2017-08-23T11:01:11Z</time></trkpt><trkpt lat="51.9144988060" lon="-1.7803188320"><ele>154.43</ele><time>2017-08-23T11:01:26Z</time></trkpt><trkpt lat="51.9143775199" lon="-1.7804316524"><ele>153.47</ele><time>2017-08-23T11:01:41Z</time></trkpt><trkpt lat="51.9142346922" lon="-1.7804872245"><ele>154.43</ele><time>2017-08-23T11:01:55Z</time></trkpt><trkpt lat="51.9142133184" lon="-1.7804947682"><ele>153.95</ele><time>2017-08-23T11:01:57Z</time></trkpt><trkpt lat="51.9140491169" lon="-1.7805356719"><ele>154.43</ele><time>2017-08-23T11:02:12Z</time></trkpt><trkpt lat="51.9138890225" lon="-1.7805399466"><ele>152.99</ele><time>2017-08-23T11:02:29Z</time></trkpt><trkpt lat="51.9136990048" lon="-1.7805415392"><ele>153.47</ele><time>2017-08-23T11:02:48Z</time></trkpt><trkpt lat="51.9135605358" lon="-1.7805327382"><ele>151.54</ele><time>2017-08-23T11:03:04Z</time></trkpt><trkpt lat="51.9133504853" lon="-1.7804746516"><ele>151.06</ele><time>2017-08-23T11:03:21Z</time></trkpt><trkpt lat="51.9133522455" lon="-1.7804472428"><ele>150.58</ele><time>2017-08-23T11:03:35Z</time></trkpt><trkpt lat="51.9133590348" lon="-1.7804570496"><ele>150.58</ele><time>2017-08-23T11:03:53Z</time></trkpt><trkpt lat="51.9133190531" lon="-1.7804329097"><ele>150.10</ele><time>2017-08-23T11:04:15Z</time></trkpt><trkpt lat="51.9132155366" lon="-1.7803783435"><ele>149.14</ele><time>2017-08-23T11:04:29Z</time></trkpt><trkpt lat="51.9130600523" lon="-1.7803682014"><ele>148.66</ele><time>2017-08-23T11:04:45Z</time></trkpt><trkpt lat="51.9129077531" lon="-1.7803326622"><ele>147.22</ele><time>2017-08-23T11:05:01Z</time></trkpt><trkpt lat="51.9128288794" lon="-1.7802321631"><ele>148.18</ele><time>2017-08-23T11:05:19Z</time></trkpt><trkpt lat="51.9127848744" lon="-1.7802211829"><ele>147.70</ele><time>2017-08-23T11:05:35Z</time></trkpt><trkpt lat="51.9127637520" lon="-1.7802271340"><ele>147.70</ele><time>2017-08-23T11:05:37Z</time></trkpt><trkpt lat="51.9126176555" lon="-1.7801765073"><ele>147.70</ele><time>2017-08-23T11:05:50Z</time></trkpt><trkpt lat="51.9125105347" lon="-1.7801231984"><ele>147.70</ele><time>2017-08-23T11:06:06Z</time></trkpt><trkpt lat="51.9123791903" lon="-1.7800080311"><ele>147.70</ele><time>2017-08-23T11:06:20Z</time></trkpt><trkpt lat="51.9122810382" lon="-1.7798641138"><ele>149.14</ele><time>2017-08-23T11:06:34Z</time></trkpt><trkpt lat="51.9121424016" lon="-1.7797678057"><ele>148.18</ele><time>2017-08-23T11:06:51Z</time></trkpt><trkpt lat="51.9120141584" lon="-1.7795925401"><ele>149.14</ele><time>2017-08-23T11:07:06Z</time></trkpt><trkpt lat="51.9118538126" lon="-1.7794326972"><ele>151.54</ele><time>2017-08-23T11:07:25Z</time></trkpt><trkpt lat="51.9117190316" lon="-1.7792435177"><ele>154.91</ele><time>2017-08-23T11:07:43Z</time></trkpt><trkpt lat="51.9117149245" lon="-1.7792372312"><ele>150.10</ele><time>2017-08-23T11:07:44Z</time></trkpt><trkpt lat="51.9117090572" lon="-1.7792296875"><ele>153.95</ele><time>2017-08-23T11:07:47Z</time></trkpt><trkpt lat="51.9115967397" lon="-1.7790271807"><ele>153.95</ele><time>2017-08-23T11:08:04Z</time></trkpt><trkpt lat="51.9114721846" lon="-1.7789395060"><ele>155.39</ele><time>2017-08-23T11:08:16Z</time></trkpt><trkpt lat="51.9113194663" lon="-1.7787858658"><ele>156.35</ele><time>2017-08-23T11:08:36Z</time></trkpt><trkpt lat="51.9111854397" lon="-1.7785938364"><ele>156.35</ele><time>2017-08-23T11:08:55Z</time></trkpt><trkpt lat="51.9111771416" lon="-1.7785976920"><ele>156.35</ele><time>2017-08-23T11:09:00Z</time></trkpt><trkpt lat="51.9111276884" lon="-1.7786114383"><ele>156.83</ele><time>2017-08-23T11:09:11Z</time></trkpt><trkpt lat="51.9111025427" lon="-1.7785999551"><ele>155.39</ele><time>2017-08-23T11:09:19Z</time></trkpt><trkpt lat="51.9110811688" lon="-1.7786051519"><ele>156.83</ele><time>2017-08-23T11:09:21Z</time></trkpt><trkpt lat="51.9109479804" lon="-1.7786525935"><ele>157.79</ele><time>2017-08-23T11:09:34Z</time></trkpt><trkpt lat="51.9108204078" lon="-1.7786667589"><ele>158.27</ele><time>2017-08-23T11:09:47Z</time></trkpt><trkpt lat="51.9107797556" lon="-1.7786722910"><ele>157.31</ele><time>2017-08-23T11:09:51Z</time></trkpt><trkpt lat="51.9107478205" lon="-1.7786866240"><ele>158.27</ele><time>2017-08-23T11:09:55Z</time></trkpt><trkpt lat="51.9106025621" lon="-1.7787026335"><ele>158.75</ele><time>2017-08-23T11:10:09Z</time></trkpt><trkpt lat="51.9104801025" lon="-1.7787316348"><ele>158.27</ele><time>2017-08-23T11:10:22Z</time></trkpt><trkpt lat="51.9104477484" lon="-1.7787092552"><ele>158.27</ele><time>2017-08-23T11:10:33Z</time></trkpt><trkpt lat="51.9103919249" lon="-1.7787245102"><ele>157.31</ele><time>2017-08-23T11:10:38Z</time></trkpt><trkpt lat="51.9102730695" lon="-1.7787664197"><ele>156.83</ele><time>2017-08-23T11:10:50Z</time></trkpt><trkpt lat="51.9102760870" lon="-1.7787696049"><ele>160.20</ele><time>2017-08-23T11:10:53Z</time></trkpt><trkpt lat="51.9102767576" lon="-1.7787701078"><ele>153.47</ele><time>2017-08-23T11:10:54Z</time></trkpt><trkpt lat="51.9102772605" lon="-1.7787707783"><ele>138.09</ele><time>2017-08-23T11:10:55Z</time></trkpt><trkpt lat="51.9102778472" lon="-1.7787722871"><ele>157.79</ele><time>2017-08-23T11:10:56Z</time></trkpt><trkpt lat="51.9102784339" lon="-1.7787737958"><ele>153.47</ele><time>2017-08-23T11:10:58Z</time></trkpt><trkpt lat="51.9102787692" lon="-1.7787752207"><ele>162.60</ele><time>2017-08-23T11:10:59Z</time></trkpt><trkpt lat="51.9102792721" lon="-1.7787771486"><ele>159.72</ele><time>2017-08-23T11:11:00Z</time></trkpt><trkpt lat="51.9102796912" lon="-1.7787789088"><ele>156.35</ele><time>2017-08-23T11:11:01Z</time></trkpt><trkpt lat="51.9102609158" lon="-1.7787864525"><ele>152.99</ele><time>2017-08-23T11:11:06Z</time></trkpt><trkpt lat="51.9102554675" lon="-1.7787869554"><ele>157.31</ele><time>2017-08-23T11:11:07Z</time></trkpt><trkpt lat="51.9102499355" lon="-1.7787899729"><ele>161.16</ele><time>2017-08-23T11:11:09Z</time></trkpt><trkpt lat="51.9102490973" lon="-1.7787910625"><ele>156.83</ele><time>2017-08-23T11:11:10Z</time></trkpt><trkpt lat="51.9102493487" lon="-1.7787891347"><ele>157.79</ele><time>2017-08-23T11:11:11Z</time></trkpt><trkpt lat="51.9102522824" lon="-1.7787866201"><ele>161.64</ele><time>2017-08-23T11:11:16Z</time></trkpt><trkpt lat="51.9102541264" lon="-1.7787877936"><ele>170.29</ele><time>2017-08-23T11:11:17Z</time></trkpt><trkpt lat="51.9102697168" lon="-1.7787964270"><ele>158.27</ele><time>2017-08-23T11:11:18Z</time></trkpt><trkpt lat="51.9102662802" lon="-1.7788001988"><ele>158.27</ele><time>2017-08-23T11:11:19Z</time></trkpt><trkpt lat="51.9101843890" lon="-1.7787924036"><ele>157.31</ele><time>2017-08-23T11:11:26Z</time></trkpt><trkpt lat="51.9101517834" lon="-1.7787896376"><ele>157.31</ele><time>2017-08-23T11:11:29Z</time></trkpt><trkpt lat="51.9099984784" lon="-1.7787973490"><ele>157.31</ele><time>2017-08-23T11:11:41Z</time></trkpt><trkpt lat="51.9098636974" lon="-1.7787820939"><ele>157.31</ele><time>2017-08-23T11:11:51Z</time></trkpt><trkpt lat="51.9097444229" lon="-1.7787566129"><ele>155.87</ele><time>2017-08-23T11:12:02Z</time></trkpt><trkpt lat="51.9096861687" lon="-1.7787640728"><ele>156.83</ele><time>2017-08-23T11:12:07Z</time></trkpt><trkpt lat="51.9095653854" lon="-1.7787898891"><ele>154.91</ele><time>2017-08-23T11:12:16Z</time></trkpt><trkpt lat="51.9093929697" lon="-1.7788309604"><ele>153.47</ele><time>2017-08-23T11:12:28Z</time></trkpt><trkpt lat="51.9093778823" lon="-1.7788370792"><ele>152.99</ele><time>2017-08-23T11:12:30Z</time></trkpt><trkpt lat="51.9093453605" lon="-1.7788452096"><ele>152.99</ele><time>2017-08-23T11:12:32Z</time></trkpt><trkpt lat="51.9092711806" lon="-1.7788460478"><ele>151.54</ele><time>2017-08-23T11:12:37Z</time></trkpt><trkpt lat="51.9091964141" lon="-1.7788373306"><ele>150.10</ele><time>2017-08-23T11:12:44Z</time></trkpt><trkpt lat="51.9091351423" lon="-1.7788236681"><ele>150.10</ele><time>2017-08-23T11:12:49Z</time></trkpt><trkpt lat="51.9091051351" lon="-1.7787933256"><ele>150.10</ele><time>2017-08-23T11:12:51Z</time></trkpt><trkpt lat="51.9090172928" lon="-1.7787903082"><ele>148.66</ele><time>2017-08-23T11:12:59Z</time></trkpt><trkpt lat="51.9089250918" lon="-1.7787406873"><ele>147.70</ele><time>2017-08-23T11:13:07Z</time></trkpt><trkpt lat="51.9088457990" lon="-1.7787193973"><ele>147.70</ele><time>2017-08-23T11:13:14Z</time></trkpt><trkpt lat="51.9087507483" lon="-1.7787343170"><ele>147.70</ele><time>2017-08-23T11:13:22Z</time></trkpt><trkpt lat="51.9087234233" lon="-1.7787035555"><ele>148.18</ele><time>2017-08-23T11:13:24Z</time></trkpt><trkpt lat="51.9086886384" lon="-1.7786842771"><ele>146.74</ele><time>2017-08-23T11:13:26Z</time></trkpt><trkpt lat="51.9086573739" lon="-1.7786701117"><ele>146.74</ele><time>2017-08-23T11:13:28Z</time></trkpt><trkpt lat="51.9086066633" lon="-1.7786549404"><ele>146.74</ele><time>2017-08-23T11:13:32Z</time></trkpt><trkpt lat="51.9085609820" lon="-1.7786636576"><ele>146.26</ele><time>2017-08-23T11:13:37Z</time></trkpt><trkpt lat="51.9084912445" lon="-1.7787020467"><ele>146.74</ele><time>2017-08-23T11:13:44Z</time></trkpt><trkpt lat="51.9083469920" lon="-1.7787085008"><ele>145.78</ele><time>2017-08-23T11:14:00Z</time></trkpt><trkpt lat="51.9082161505" lon="-1.7786991131"><ele>144.82</ele><time>2017-08-23T11:14:15Z</time></trkpt><trkpt lat="51.9081972912" lon="-1.7786945030"><ele>143.85</ele><time>2017-08-23T11:14:33Z</time></trkpt><trkpt lat="51.9081464130" lon="-1.7786961794"><ele>144.34</ele><time>2017-08-23T11:14:48Z</time></trkpt><trkpt lat="51.9080838840" lon="-1.7786601372"><ele>144.82</ele><time>2017-08-23T11:15:02Z</time></trkpt><trkpt lat="51.9080079440" lon="-1.7786575388"><ele>143.37</ele><time>2017-08-23T11:15:14Z</time></trkpt><trkpt lat="51.9079328422" lon="-1.7786328122"><ele>143.85</ele><time>2017-08-23T11:15:21Z</time></trkpt><trkpt lat="51.9077585824" lon="-1.7784498353"><ele>143.85</ele><time>2017-08-23T11:15:39Z</time></trkpt><trkpt lat="51.9077104703" lon="-1.7783826962"><ele>143.37</ele><time>2017-08-23T11:15:50Z</time></trkpt><trkpt lat="51.9076388050" lon="-1.7781251203"><ele>144.34</ele><time>2017-08-23T11:16:06Z</time></trkpt><trkpt lat="51.9076082949" lon="-1.7778833862"><ele>143.37</ele><time>2017-08-23T11:16:23Z</time></trkpt><trkpt lat="51.9075723365" lon="-1.7776062805"><ele>142.89</ele><time>2017-08-23T11:16:40Z</time></trkpt><trkpt lat="51.9075689837" lon="-1.7772894446"><ele>143.85</ele><time>2017-08-23T11:17:00Z</time></trkpt><trkpt lat="51.9075870048" lon="-1.7771092337"><ele>143.37</ele><time>2017-08-23T11:17:17Z</time></trkpt><trkpt lat="51.9075965602" lon="-1.7770330422"><ele>142.89</ele><time>2017-08-23T11:17:21Z</time></trkpt><trkpt lat="51.9076173473" lon="-1.7767301202"><ele>143.37</ele><time>2017-08-23T11:17:38Z</time></trkpt><trkpt lat="51.9076523837" lon="-1.7764177267"><ele>144.34</ele><time>2017-08-23T11:17:57Z</time></trkpt><trkpt lat="51.9076781999" lon="-1.7762997095"><ele>144.82</ele><time>2017-08-23T11:18:14Z</time></trkpt><trkpt lat="51.9076386373" lon="-1.7761066742"><ele>145.78</ele><time>2017-08-23T11:18:31Z</time></trkpt><trkpt lat="51.9076367933" lon="-1.7760729790"><ele>146.74</ele><time>2017-08-23T11:18:33Z</time></trkpt><trkpt lat="51.9075962249" lon="-1.7759059276"><ele>147.22</ele><time>2017-08-23T11:18:48Z</time></trkpt><trkpt lat="51.9075975660" lon="-1.7759028263"><ele>147.22</ele><time>2017-08-23T11:19:06Z</time></trkpt><trkpt lat="51.9075986557" lon="-1.7758901697"><ele>146.26</ele><time>2017-08-23T11:19:37Z</time></trkpt><trkpt lat="51.9076204486" lon="-1.7758344300"><ele>146.26</ele><time>2017-08-23T11:20:05Z</time></trkpt><trkpt lat="51.9077478535" lon="-1.7757745832"><ele>144.34</ele><time>2017-08-23T11:20:22Z</time></trkpt><trkpt lat="51.9078551419" lon="-1.7757230345"><ele>142.41</ele><time>2017-08-23T11:20:38Z</time></trkpt><trkpt lat="51.9080028310" lon="-1.7756793648"><ele>140.97</ele><time>2017-08-23T11:20:53Z</time></trkpt><trkpt lat="51.9080483448" lon="-1.7757081147"><ele>140.49</ele><time>2017-08-23T11:21:05Z</time></trkpt><trkpt lat="51.9080408849" lon="-1.7756969668"><ele>140.49</ele><time>2017-08-23T11:21:21Z</time></trkpt><trkpt lat="51.9080809504" lon="-1.7756152432"><ele>140.97</ele><time>2017-08-23T11:21:36Z</time></trkpt><trkpt lat="51.9080789387" lon="-1.7755869962"><ele>141.45</ele><time>2017-08-23T11:21:58Z</time></trkpt><trkpt lat="51.9080970436" lon="-1.7754258960"><ele>140.97</ele><time>2017-08-23T11:22:12Z</time></trkpt><trkpt lat="51.9081367739" lon="-1.7752030212"><ele>140.49</ele><time>2017-08-23T11:22:29Z</time></trkpt><trkpt lat="51.9082147256" lon="-1.7750090640"><ele>141.45</ele><time>2017-08-23T11:22:47Z</time></trkpt><trkpt lat="51.9082172401" lon="-1.7748703435"><ele>141.93</ele><time>2017-08-23T11:23:03Z</time></trkpt><trkpt lat="51.9082241971" lon="-1.7746700998"><ele>141.45</ele><time>2017-08-23T11:23:19Z</time></trkpt><trkpt lat="51.9081859756" lon="-1.7745488137"><ele>141.45</ele><time>2017-08-23T11:23:35Z</time></trkpt><trkpt lat="51.9081770908" lon="-1.7743567005"><ele>141.93</ele><time>2017-08-23T11:23:52Z</time></trkpt><trkpt lat="51.9081713073" lon="-1.7742282059"><ele>141.45</ele><time>2017-08-23T11:23:59Z</time></trkpt><trkpt lat="51.9081253745" lon="-1.7739574704"><ele>142.41</ele><time>2017-08-23T11:24:17Z</time></trkpt><trkpt lat="51.9080874044" lon="-1.7738009803"><ele>141.45</ele><time>2017-08-23T11:24:33Z</time></trkpt><trkpt lat="51.9080653600" lon="-1.7736934405"><ele>141.45</ele><time>2017-08-23T11:24:45Z</time></trkpt><trkpt lat="51.9080572296" lon="-1.7736195121"><ele>140.97</ele><time>2017-08-23T11:24:59Z</time></trkpt><trkpt lat="51.9081018213" lon="-1.7734983936"><ele>141.45</ele><time>2017-08-23T11:25:09Z</time></trkpt><trkpt lat="51.9081865624" lon="-1.7734065279"><ele>141.93</ele><time>2017-08-23T11:25:19Z</time></trkpt><trkpt lat="51.9082039129" lon="-1.7733778618"><ele>141.93</ele><time>2017-08-23T11:25:21Z</time></trkpt><trkpt lat="51.9082179945" lon="-1.7733451724"><ele>141.93</ele><time>2017-08-23T11:25:24Z</time></trkpt><trkpt lat="51.9082377758" lon="-1.7733086273"><ele>142.41</ele><time>2017-08-23T11:25:27Z</time></trkpt><trkpt lat="51.9082254544" lon="-1.7730590142"><ele>141.93</ele><time>2017-08-23T11:25:44Z</time></trkpt><trkpt lat="51.9082155637" lon="-1.7730059568"><ele>143.85</ele><time>2017-08-23T11:25:48Z</time></trkpt><trkpt lat="51.9082085229" lon="-1.7729794700"><ele>143.37</ele><time>2017-08-23T11:25:50Z</time></trkpt><trkpt lat="51.9082020689" lon="-1.7729152646"><ele>142.89</ele><time>2017-08-23T11:25:54Z</time></trkpt><trkpt lat="51.9081930164" lon="-1.7728073057"><ele>144.34</ele><time>2017-08-23T11:26:01Z</time></trkpt><trkpt lat="51.9081492629" lon="-1.7725190520"><ele>145.78</ele><time>2017-08-23T11:26:17Z</time></trkpt><trkpt lat="51.9080744963" lon="-1.7723393440"><ele>147.70</ele><time>2017-08-23T11:26:36Z</time></trkpt><trkpt lat="51.9079660345" lon="-1.7721050698"><ele>148.66</ele><time>2017-08-23T11:26:51Z</time></trkpt><trkpt lat="51.9079172518" lon="-1.7719879746"><ele>150.58</ele><time>2017-08-23T11:27:04Z</time></trkpt><trkpt lat="51.9078215305" lon="-1.7718687840"><ele>151.06</ele><time>2017-08-23T11:27:19Z</time></trkpt><trkpt lat="51.9078066107" lon="-1.7718148883"><ele>151.06</ele><time>2017-08-23T11:27:38Z</time></trkpt><trkpt lat="51.9077957142" lon="-1.7718089372"><ele>151.54</ele><time>2017-08-23T11:27:41Z</time></trkpt><trkpt lat="51.9077369571" lon="-1.7718038242"><ele>152.03</ele><time>2017-08-23T11:27:49Z</time></trkpt><trkpt lat="51.9077066146" lon="-1.7718009744"><ele>151.54</ele><time>2017-08-23T11:27:53Z</time></trkpt><trkpt lat="51.9076252263" lon="-1.7718001362"><ele>151.54</ele><time>2017-08-23T11:28:04Z</time></trkpt><trkpt lat="51.9075402338" lon="-1.7717556283"><ele>150.10</ele><time>2017-08-23T11:28:15Z</time></trkpt><trkpt lat="51.9075002521" lon="-1.7716100346"><ele>151.54</ele><time>2017-08-23T11:28:24Z</time></trkpt><trkpt lat="51.9074695744" lon="-1.7715198454"><ele>150.58</ele><time>2017-08-23T11:28:32Z</time></trkpt><trkpt lat="51.9074475300" lon="-1.7714605015"><ele>150.10</ele><time>2017-08-23T11:28:40Z</time></trkpt><trkpt lat="51.9074211270" lon="-1.7713843938"><ele>150.58</ele><time>2017-08-23T11:28:45Z</time></trkpt><trkpt lat="51.9073900301" lon="-1.7712101340"><ele>151.06</ele><time>2017-08-23T11:28:58Z</time></trkpt><trkpt lat="51.9073762838" lon="-1.7711709067"><ele>151.06</ele><time>2017-08-23T11:29:08Z</time></trkpt><trkpt lat="51.9073653873" lon="-1.7711167596"><ele>150.58</ele><time>2017-08-23T11:29:12Z</time></trkpt><trkpt lat="51.9073208794" lon="-1.7710709106"><ele>151.54</ele><time>2017-08-23T11:29:17Z</time></trkpt><trkpt lat="51.9072332047" lon="-1.7710463516"><ele>150.58</ele><time>2017-08-23T11:29:29Z</time></trkpt><trkpt lat="51.9071245752" lon="-1.7710911110"><ele>149.62</ele><time>2017-08-23T11:29:41Z</time></trkpt><trkpt lat="51.9070572685" lon="-1.7711181007"><ele>149.14</ele><time>2017-08-23T11:29:48Z</time></trkpt><trkpt lat="51.9069256727" lon="-1.7711383011"><ele>148.18</ele><time>2017-08-23T11:30:01Z</time></trkpt><trkpt lat="51.9068938214" lon="-1.7711249739"><ele>147.22</ele><time>2017-08-23T11:30:08Z</time></trkpt><trkpt lat="51.9068729505" lon="-1.7710605171"><ele>147.70</ele><time>2017-08-23T11:30:12Z</time></trkpt><trkpt lat="51.9068245869" lon="-1.7708886042"><ele>147.22</ele><time>2017-08-23T11:30:23Z</time></trkpt><trkpt lat="51.9068248384" lon="-1.7708534002"><ele>147.22</ele><time>2017-08-23T11:30:25Z</time></trkpt><trkpt lat="51.9067979325" lon="-1.7707750294"><ele>146.26</ele><time>2017-08-23T11:30:31Z</time></trkpt><trkpt lat="51.9067302905" lon="-1.7705793958"><ele>145.78</ele><time>2017-08-23T11:30:44Z</time></trkpt><trkpt lat="51.9066848606" lon="-1.7704756279"><ele>145.78</ele><time>2017-08-23T11:30:52Z</time></trkpt><trkpt lat="51.9066612236" lon="-1.7704377417"><ele>144.82</ele><time>2017-08-23T11:30:55Z</time></trkpt><trkpt lat="51.9065575395" lon="-1.7702732887"><ele>144.34</ele><time>2017-08-23T11:31:08Z</time></trkpt><trkpt lat="51.9065565336" lon="-1.7702455446"><ele>143.85</ele><time>2017-08-23T11:31:11Z</time></trkpt><trkpt lat="51.9065300468" lon="-1.7702140287"><ele>144.34</ele><time>2017-08-23T11:31:15Z</time></trkpt><trkpt lat="51.9064576272" lon="-1.7700796667"><ele>143.37</ele><time>2017-08-23T11:31:28Z</time></trkpt><trkpt lat="51.9063986186" lon="-1.7699780781"><ele>142.89</ele><time>2017-08-23T11:31:35Z</time></trkpt><trkpt lat="51.9063498359" lon="-1.7698669340"><ele>142.89</ele><time>2017-08-23T11:31:43Z</time></trkpt><trkpt lat="51.9062501751" lon="-1.7696940992"><ele>142.89</ele><time>2017-08-23T11:31:57Z</time></trkpt><trkpt lat="51.9061806053" lon="-1.7695946898"><ele>142.89</ele><time>2017-08-23T11:32:05Z</time></trkpt><trkpt lat="51.9060792681" lon="-1.7694288120"><ele>142.89</ele><time>2017-08-23T11:32:17Z</time></trkpt><trkpt lat="51.9059993885" lon="-1.7692547198"><ele>142.41</ele><time>2017-08-23T11:32:29Z</time></trkpt><trkpt lat="51.9059502706" lon="-1.7691861559"><ele>142.41</ele><time>2017-08-23T11:32:36Z</time></trkpt><trkpt lat="51.9059373625" lon="-1.7691636086"><ele>142.41</ele><time>2017-08-23T11:32:38Z</time></trkpt><trkpt lat="51.9058252126" lon="-1.7689652927"><ele>142.41</ele><time>2017-08-23T11:32:53Z</time></trkpt><trkpt lat="51.9057411421" lon="-1.7688320205"><ele>141.93</ele><time>2017-08-23T11:33:05Z</time></trkpt><trkpt lat="51.9056567363" lon="-1.7686821520"><ele>141.93</ele><time>2017-08-23T11:33:16Z</time></trkpt><trkpt lat="51.9055683911" lon="-1.7685151845"><ele>141.93</ele><time>2017-08-23T11:33:29Z</time></trkpt><trkpt lat="51.9055626076" lon="-1.7685055453"><ele>141.93</ele><time>2017-08-23T11:33:30Z</time></trkpt><trkpt lat="51.9054606836" lon="-1.7683984246"><ele>141.93</ele><time>2017-08-23T11:33:41Z</time></trkpt><trkpt lat="51.9053951371" lon="-1.7682956625"><ele>141.93</ele><time>2017-08-23T11:33:50Z</time></trkpt><trkpt lat="51.9053523056" lon="-1.7682310380"><ele>141.93</ele><time>2017-08-23T11:33:56Z</time></trkpt><trkpt lat="51.9052957278" lon="-1.7681473866"><ele>142.41</ele><time>2017-08-23T11:34:09Z</time></trkpt><trkpt lat="51.9052505493" lon="-1.7680853605"><ele>141.93</ele><time>2017-08-23T11:34:24Z</time></trkpt><trkpt lat="51.9052482024" lon="-1.7680764757"><ele>141.45</ele><time>2017-08-23T11:34:55Z</time></trkpt><trkpt lat="51.9052220508" lon="-1.7680689320"><ele>141.93</ele><time>2017-08-23T11:35:04Z</time></trkpt><trkpt lat="51.9051890261" lon="-1.7680485640"><ele>141.93</ele><time>2017-08-23T11:35:07Z</time></trkpt><trkpt lat="51.9050436839" lon="-1.7679100111"><ele>141.93</ele><time>2017-08-23T11:35:22Z</time></trkpt><trkpt lat="51.9049058855" lon="-1.7678395193"><ele>141.45</ele><time>2017-08-23T11:35:35Z</time></trkpt><trkpt lat="51.9048671611" lon="-1.7678218335"><ele>141.45</ele><time>2017-08-23T11:35:39Z</time></trkpt><trkpt lat="51.9048364833" lon="-1.7678025551"><ele>140.97</ele><time>2017-08-23T11:35:43Z</time></trkpt><trkpt lat="51.9048125949" lon="-1.7677884735"><ele>141.45</ele><time>2017-08-23T11:35:45Z</time></trkpt><trkpt lat="51.9047664106" lon="-1.7677797563"><ele>140.97</ele><time>2017-08-23T11:35:49Z</time></trkpt><trkpt lat="51.9046570268" lon="-1.7677396070"><ele>140.97</ele><time>2017-08-23T11:35:59Z</time></trkpt><trkpt lat="51.9045938272" lon="-1.7677179817"><ele>140.49</ele><time>2017-08-23T11:36:05Z</time></trkpt><trkpt lat="51.9045323879" lon="-1.7676979490"><ele>140.49</ele><time>2017-08-23T11:36:11Z</time></trkpt><trkpt lat="51.9045149535" lon="-1.7676878069"><ele>140.49</ele><time>2017-08-23T11:36:13Z</time></trkpt><trkpt lat="51.9043230917" lon="-1.7676264513"><ele>140.49</ele><time>2017-08-23T11:36:31Z</time></trkpt><trkpt lat="51.9041939266" lon="-1.7676092684"><ele>139.53</ele><time>2017-08-23T11:36:49Z</time></trkpt><trkpt lat="51.9041017257" lon="-1.7675174028"><ele>140.01</ele><time>2017-08-23T11:37:04Z</time></trkpt><trkpt lat="51.9040907454" lon="-1.7675086018"><ele>139.53</ele><time>2017-08-23T11:37:05Z</time></trkpt><trkpt lat="51.9039736502" lon="-1.7673899978"><ele>140.01</ele><time>2017-08-23T11:37:17Z</time></trkpt><trkpt lat="51.9039319921" lon="-1.7672842182"><ele>140.01</ele><time>2017-08-23T11:37:24Z</time></trkpt><trkpt lat="51.9039179105" lon="-1.7672506068"><ele>140.01</ele><time>2017-08-23T11:37:26Z</time></trkpt><trkpt lat="51.9038390368" lon="-1.7670559790"><ele>139.53</ele><time>2017-08-23T11:37:39Z</time></trkpt><trkpt lat="51.9038009830" lon="-1.7669567373"><ele>140.01</ele><time>2017-08-23T11:37:48Z</time></trkpt><trkpt lat="51.9037807826" lon="-1.7668830603"><ele>140.01</ele><time>2017-08-23T11:37:53Z</time></trkpt><trkpt lat="51.9037646055" lon="-1.7668382172"><ele>140.01</ele><time>2017-08-23T11:37:56Z</time></trkpt><trkpt lat="51.9036957901" lon="-1.7666124925"><ele>140.01</ele><time>2017-08-23T11:38:11Z</time></trkpt><trkpt lat="51.9036103785" lon="-1.7664221395"><ele>139.53</ele><time>2017-08-23T11:38:28Z</time></trkpt><trkpt lat="51.9035907649" lon="-1.7663619574"><ele>139.05</ele><time>2017-08-23T11:38:32Z</time></trkpt><trkpt lat="51.9034885895" lon="-1.7661963310"><ele>139.53</ele><time>2017-08-23T11:38:46Z</time></trkpt><trkpt lat="51.9034060277" lon="-1.7660528328"><ele>139.05</ele><time>2017-08-23T11:38:58Z</time></trkpt><trkpt lat="51.9033124857" lon="-1.7658929061"><ele>139.05</ele><time>2017-08-23T11:39:11Z</time></trkpt><trkpt lat="51.9032316841" lon="-1.7657639086"><ele>138.57</ele><time>2017-08-23T11:39:22Z</time></trkpt><trkpt lat="51.9031539839" lon="-1.7656229250"><ele>139.05</ele><time>2017-08-23T11:39:33Z</time></trkpt><trkpt lat="51.9031144213" lon="-1.7655546125"><ele>138.57</ele><time>2017-08-23T11:39:39Z</time></trkpt><trkpt lat="51.9031012617" lon="-1.7655360047"><ele>139.05</ele><time>2017-08-23T11:39:41Z</time></trkpt><trkpt lat="51.9029984158" lon="-1.7653812747"><ele>138.57</ele><time>2017-08-23T11:39:54Z</time></trkpt><trkpt lat="51.9029249065" lon="-1.7652503494"><ele>139.05</ele><time>2017-08-23T11:40:06Z</time></trkpt><trkpt lat="51.9028370641" lon="-1.7650585715"><ele>138.57</ele><time>2017-08-23T11:40:18Z</time></trkpt><trkpt lat="51.9027571846" lon="-1.7649321724"><ele>138.09</ele><time>2017-08-23T11:40:31Z</time></trkpt><trkpt lat="51.9027411751" lon="-1.7649063561"><ele>139.05</ele><time>2017-08-23T11:40:34Z</time></trkpt><trkpt lat="51.9027211424" lon="-1.7648705654"><ele>138.09</ele><time>2017-08-23T11:40:37Z</time></trkpt><trkpt lat="51.9026312046" lon="-1.7647325154"><ele>138.09</ele><time>2017-08-23T11:40:48Z</time></trkpt><trkpt lat="51.9026219845" lon="-1.7646929529"><ele>138.09</ele><time>2017-08-23T11:40:50Z</time></trkpt><trkpt lat="51.9026053883" lon="-1.7646108940"><ele>137.61</ele><time>2017-08-23T11:40:54Z</time></trkpt><trkpt lat="51.9025825057" lon="-1.7645598482"><ele>137.61</ele><time>2017-08-23T11:40:58Z</time></trkpt><trkpt lat="51.9025367405" lon="-1.7645034380"><ele>137.61</ele><time>2017-08-23T11:41:04Z</time></trkpt><trkpt lat="51.9025152829" lon="-1.7644613609"><ele>137.61</ele><time>2017-08-23T11:41:07Z</time></trkpt><trkpt lat="51.9024858624" lon="-1.7644087225"><ele>137.61</ele><time>2017-08-23T11:41:11Z</time></trkpt><trkpt lat="51.9024072401" lon="-1.7642704211"><ele>138.09</ele><time>2017-08-23T11:41:23Z</time></trkpt><trkpt lat="51.9023805857" lon="-1.7642263323"><ele>138.09</ele><time>2017-08-23T11:41:27Z</time></trkpt><trkpt lat="51.9023618102" lon="-1.7641960736"><ele>138.09</ele><time>2017-08-23T11:41:29Z</time></trkpt><trkpt lat="51.9023032207" lon="-1.7641002685"><ele>137.61</ele><time>2017-08-23T11:41:42Z</time></trkpt><trkpt lat="51.9022636581" lon="-1.7640417628"><ele>137.61</ele><time>2017-08-23T11:41:55Z</time></trkpt><trkpt lat="51.9021678530" lon="-1.7638348974"><ele>137.61</ele><time>2017-08-23T11:42:09Z</time></trkpt><trkpt lat="51.9021145441" lon="-1.7637502402"><ele>137.13</ele><time>2017-08-23T11:42:18Z</time></trkpt><trkpt lat="51.9020044059" lon="-1.7635800038"><ele>137.13</ele><time>2017-08-23T11:42:31Z</time></trkpt><trkpt lat="51.9019310642" lon="-1.7634474859"><ele>137.61</ele><time>2017-08-23T11:42:42Z</time></trkpt><trkpt lat="51.9018213451" lon="-1.7633659299"><ele>136.64</ele><time>2017-08-23T11:42:54Z</time></trkpt><trkpt lat="51.9017910864" lon="-1.7633816041"><ele>136.64</ele><time>2017-08-23T11:42:57Z</time></trkpt><trkpt lat="51.9016941916" lon="-1.7635081708"><ele>135.68</ele><time>2017-08-23T11:43:10Z</time></trkpt><trkpt lat="51.9016332552" lon="-1.7635652516"><ele>135.68</ele><time>2017-08-23T11:43:24Z</time></trkpt><trkpt lat="51.9016350154" lon="-1.7635062430"><ele>135.20</ele><time>2017-08-23T11:43:44Z</time></trkpt><trkpt lat="51.9015325885" lon="-1.7635488231"><ele>134.72</ele><time>2017-08-23T11:43:57Z</time></trkpt><trkpt lat="51.9013672974" lon="-1.7635038961"><ele>135.20</ele><time>2017-08-23T11:44:10Z</time></trkpt><trkpt lat="51.9012760185" lon="-1.7633619905"><ele>135.20</ele><time>2017-08-23T11:44:22Z</time></trkpt><trkpt lat="51.9012545608" lon="-1.7632987071"><ele>134.72</ele><time>2017-08-23T11:44:26Z</time></trkpt><trkpt lat="51.9011869188" lon="-1.7630684562"><ele>135.20</ele><time>2017-08-23T11:44:41Z</time></trkpt><trkpt lat="51.9011844043" lon="-1.7628872395"><ele>135.20</ele><time>2017-08-23T11:44:53Z</time></trkpt><trkpt lat="51.9011754356" lon="-1.7626598384"><ele>135.20</ele><time>2017-08-23T11:45:06Z</time></trkpt><trkpt lat="51.9012096338" lon="-1.7624906916"><ele>135.20</ele><time>2017-08-23T11:45:17Z</time></trkpt><trkpt lat="51.9012735039" lon="-1.7622544896"><ele>134.72</ele><time>2017-08-23T11:45:32Z</time></trkpt><trkpt lat="51.9013231248" lon="-1.7620467022"><ele>135.68</ele><time>2017-08-23T11:45:45Z</time></trkpt><trkpt lat="51.9013600051" lon="-1.7618073151"><ele>134.72</ele><time>2017-08-23T11:46:00Z</time></trkpt><trkpt lat="51.9013962150" lon="-1.7615897208"><ele>134.72</ele><time>2017-08-23T11:46:14Z</time></trkpt><trkpt lat="51.9013999030" lon="-1.7615530919"><ele>135.20</ele><time>2017-08-23T11:46:16Z</time></trkpt><trkpt lat="51.9013504498" lon="-1.7614162154"><ele>135.68</ele><time>2017-08-23T11:46:29Z</time></trkpt><trkpt lat="51.9013301656" lon="-1.7614236753"><ele>135.20</ele><time>2017-08-23T11:46:31Z</time></trkpt><trkpt lat="51.9012206141" lon="-1.7614943348"><ele>135.20</ele><time>2017-08-23T11:46:40Z</time></trkpt><trkpt lat="51.9011760224" lon="-1.7614897247"><ele>135.20</ele><time>2017-08-23T11:46:47Z</time></trkpt><trkpt lat="51.9011243060" lon="-1.7615084164"><ele>135.20</ele><time>2017-08-23T11:46:53Z</time></trkpt><trkpt lat="51.9009791315" lon="-1.7615531757"><ele>135.68</ele><time>2017-08-23T11:47:06Z</time></trkpt><trkpt lat="51.9008356333" lon="-1.7615260184"><ele>135.68</ele><time>2017-08-23T11:47:22Z</time></trkpt><trkpt lat="51.9007374812" lon="-1.7613683548"><ele>135.68</ele><time>2017-08-23T11:47:36Z</time></trkpt><trkpt lat="51.9006865192" lon="-1.7612655088"><ele>135.68</ele><time>2017-08-23T11:47:44Z</time></trkpt><trkpt lat="51.9006218109" lon="-1.7611391935"><ele>135.68</ele><time>2017-08-23T11:47:55Z</time></trkpt><trkpt lat="51.9005526602" lon="-1.7610776704"><ele>135.68</ele><time>2017-08-23T11:48:02Z</time></trkpt><trkpt lat="51.9005199708" lon="-1.7610410415"><ele>135.20</ele><time>2017-08-23T11:48:05Z</time></trkpt><trkpt lat="51.9005001895" lon="-1.7610334978"><ele>136.16</ele><time>2017-08-23T11:48:21Z</time></trkpt><trkpt lat="51.9004997704" lon="-1.7610440589"><ele>135.68</ele><time>2017-08-23T11:48:30Z</time></trkpt></trkseg></trk></gpx>